Observation data for Fort McKavett on 03/25/2019      Previous  Date  Next       Current Mesonet Observations  Soil Data  Daily Summary Page  Observations in Plain Language
KMC1 250500Z 18006KT 18/16 A3008 RMK A01 T01810160  RH  088%=      5-min Rain = 0
KMC1 250501Z 18008KT 18/16 A3008 RMK A01 T01800160  RH  088%=      5-min Rain = 0
KMC1 250502Z 18007KT 18/16 A3008 RMK A01 T01810160  RH  088%=      5-min Rain = 0
KMC1 250503Z 18008KT 18/16 A3008 RMK A01 T01800159  RH  088%=      5-min Rain = 0
KMC1 250504Z 18006KT 18/16 A3008 RMK A01 T01810159  RH  087%=      5-min Rain = 0
KMC1 250505Z 18007KT 18/16 A3008 RMK A01 T01810160  RH  088%=      5-min Rain = 0
KMC1 250506Z 18008KT 18/16 A3008 RMK A01 T01810160  RH  088%=      5-min Rain = 0
KMC1 250507Z 18006KT 18/16 A3008 RMK A01 T01810159  RH  087%=      5-min Rain = 0
KMC1 250508Z 18007KT 18/16 A3008 RMK A01 T01810160  RH  087%=      5-min Rain = 0
KMC1 250509Z 19008KT 18/16 A3008 RMK A01 T01800160  RH  088%=      5-min Rain = 0
KMC1 250510Z 19007KT 18/16 A3008 RMK A01 T01800160  RH  088%=      5-min Rain = 0
KMC1 250511Z 19008KT 18/16 A3008 RMK A01 T01800160  RH  088%=      5-min Rain = 0
KMC1 250512Z 18007KT 18/16 A3008 RMK A01 T01800160  RH  088%=      5-min Rain = 0
KMC1 250513Z 18007KT 18/16 A3008 RMK A01 T01810160  RH  088%=      5-min Rain = 0
KMC1 250514Z 19006KT 18/16 A3008 RMK A01 T01800160  RH  088%=      5-min Rain = 0
KMC1 250515Z 18006KT 18/16 A3008 RMK A01 T01800160  RH  088%=      5-min Rain = 0
KMC1 250516Z 18006KT 18/16 A3008 RMK A01 T01810160  RH  088%=      5-min Rain = 0
KMC1 250517Z 18008KT 18/16 A3008 RMK A01 T01800160  RH  088%=      5-min Rain = 0
KMC1 250518Z 18007KT 18/16 A3008 RMK A01 T01800160  RH  088%=      5-min Rain = 0
KMC1 250519Z 19007KT 18/16 A3008 RMK A01 T01800159  RH  088%=      5-min Rain = 0
KMC1 250520Z 17007G14KT 18/16 A3008 RMK A01 T01800160  RH  088%=      5-min Rain = 0
KMC1 250521Z 18008KT 18/16 A3008 RMK A01 T01800160  RH  088%=      5-min Rain = 0
KMC1 250522Z 17006KT 18/16 A3008 RMK A01 T01800160  RH  088%=      5-min Rain = 0
KMC1 250523Z 18006KT 18/16 A3008 RMK A01 T01800160  RH  088%=      5-min Rain = 0
KMC1 250524Z 18006KT 18/16 A3008 RMK A01 T01800160  RH  088%=      5-min Rain = 0
KMC1 250525Z 18007KT 18/16 A3008 RMK A01 T01800160  RH  088%=      5-min Rain = 0
KMC1 250526Z 18007KT 18/16 A3008 RMK A01 T01790160  RH  088%=      5-min Rain = 0
KMC1 250527Z 18006KT 18/16 A3008 RMK A01 T01800160  RH  088%=      5-min Rain = 0
KMC1 250528Z 18006KT 18/16 A3008 RMK A01 T01790160  RH  088%=      5-min Rain = 0
KMC1 250529Z 18007KT 18/16 A3008 RMK A01 T01800160  RH  088%=      5-min Rain = 0
KMC1 250530Z 19006KT 18/16 A3008 RMK A01 T01790160  RH  089%=      5-min Rain = 0
KMC1 250531Z 18005KT 18/16 A3008 RMK A01 T01790160  RH  088%=      5-min Rain = 0
KMC1 250532Z 18007KT 18/16 A3008 RMK A01 T01790160  RH  089%=      5-min Rain = 0
KMC1 250533Z 18007KT 18/16 A3008 RMK A01 T01790160  RH  089%=      5-min Rain = 0
KMC1 250534Z 18006KT 18/16 A3008 RMK A01 T01780160  RH  089%=      5-min Rain = 0
KMC1 250535Z 18008KT 18/16 A3008 RMK A01 T01790160  RH  089%=      5-min Rain = 0
KMC1 250536Z 18006KT 18/16 A3008 RMK A01 T01790160  RH  089%=      5-min Rain = 0
KMC1 250537Z 18006KT 18/16 A3008 RMK A01 T01780160  RH  089%=      5-min Rain = 0
KMC1 250538Z 18006KT 18/16 A3008 RMK A01 T01780160  RH  089%=      5-min Rain = 0
KMC1 250539Z 19005KT 18/16 A3008 RMK A01 T01780160  RH  089%=      5-min Rain = 0
KMC1 250540Z 18006KT 18/16 A3008 RMK A01 T01780159  RH  089%=      5-min Rain = 0
KMC1 250541Z 19005KT 18/16 A3008 RMK A01 T01780159  RH  089%=      5-min Rain = 0
KMC1 250542Z 19006KT 18/16 A3008 RMK A01 T01770159  RH  089%=      5-min Rain = 0
KMC1 250543Z 19006KT 18/16 A3008 RMK A01 T01770159  RH  090%=      5-min Rain = 0
KMC1 250544Z 19004KT 18/16 A3008 RMK A01 T01770159  RH  089%=      5-min Rain = 0
KMC1 250545Z 19005KT 18/16 A3008 RMK A01 T01770159  RH  089%=      5-min Rain = 0
KMC1 250546Z 20004KT 18/16 A3008 RMK A01 T01760158  RH  089%=      5-min Rain = 0
KMC1 250547Z 20004KT 18/16 A3008 RMK A01 T01760159  RH  090%=      5-min Rain = 0
KMC1 250548Z 19004KT 18/16 A3008 RMK A01 T01750159  RH  090%=      5-min Rain = 0
KMC1 250549Z 21004KT 18/16 A3008 RMK A01 T01750159  RH  090%=      5-min Rain = 0
KMC1 250550Z 21004KT 18/16 A3008 RMK A01 T01750159  RH  090%=      5-min Rain = 0
KMC1 250551Z 19004KT 18/16 A3008 RMK A01 T01750159  RH  090%=      5-min Rain = 0
KMC1 250552Z 19004KT 18/16 A3008 RMK A01 T01750159  RH  090%=      5-min Rain = 0
KMC1 250553Z 20003KT 17/16 A3008 RMK A01 T01740159  RH  090%=      5-min Rain = 0
KMC1 250554Z 19003KT 18/16 A3008 RMK A01 T01750158  RH  090%=      5-min Rain = 0
KMC1 250555Z 20004KT 17/16 A3008 RMK A01 T01740158  RH  090%=      5-min Rain = 0
KMC1 250556Z 19004KT 17/16 A3008 RMK A01 T01730158  RH  091%=      5-min Rain = 0
KMC1 250557Z 19004KT 17/16 A3008 RMK A01 T01730158  RH  091%=      5-min Rain = 0
KMC1 250558Z 19003KT 17/16 A3008 RMK A01 T01730158  RH  091%=      5-min Rain = 0
KMC1 250559Z 19005KT 17/16 A3008 RMK A01 T01720158  RH  091%=      5-min Rain = 0
KMC1 250600Z 19004KT 17/16 A3008 RMK A01 T01720158  RH  091%=      5-min Rain = 0
KMC1 250601Z 19005KT 17/16 A3008 RMK A01 T01720158  RH  091%=      5-min Rain = 0
KMC1 250602Z 19004KT 17/16 A3008 RMK A01 T01720157  RH  091%=      5-min Rain = 0
KMC1 250603Z 19005KT 17/16 A3008 RMK A01 T01710157  RH  091%=      5-min Rain = 0
KMC1 250604Z 20004KT 17/16 A3008 RMK A01 T01710158  RH  092%=      5-min Rain = 0
KMC1 250605Z 20004KT 17/16 A3008 RMK A01 T01710157  RH  092%=      5-min Rain = 0
KMC1 250606Z 20004KT 17/16 A3008 RMK A01 T01710157  RH  092%=      5-min Rain = 0
KMC1 250607Z 20005KT 17/16 A3008 RMK A01 T01710158  RH  092%=      5-min Rain = 0
KMC1 250608Z 20004KT 17/16 A3008 RMK A01 T01700157  RH  092%=      5-min Rain = 0
KMC1 250609Z 20003KT 17/16 A3008 RMK A01 T01700157  RH  092%=      5-min Rain = 0
KMC1 250610Z 20004KT 17/16 A3008 RMK A01 T01700157  RH  092%=      5-min Rain = 0
KMC1 250611Z 20003KT 17/16 A3008 RMK A01 T01700158  RH  092%=      5-min Rain = 0
KMC1 250612Z 20003KT 17/16 A3008 RMK A01 T01700158  RH  092%=      5-min Rain = 0
KMC1 250613Z 22003KT 17/16 A3008 RMK A01 T01700157  RH  092%=      5-min Rain = 0
KMC1 250614Z 21002KT 17/16 A3008 RMK A01 T01690156  RH  092%=      5-min Rain = 0
KMC1 250615Z 20002KT 17/16 A3008 RMK A01 T01690156  RH  092%=      5-min Rain = 0
KMC1 250616Z 20003KT 17/16 A3008 RMK A01 T01690157  RH  093%=      5-min Rain = 0
KMC1 250617Z 21001KT 17/16 A3008 RMK A01 T01690157  RH  093%=      5-min Rain = 0
KMC1 250618Z 22002KT 17/16 A3009 RMK A01 T01680157  RH  093%=      5-min Rain = 0
KMC1 250619Z 23001KT 17/16 A3009 RMK A01 T01680157  RH  093%=      5-min Rain = 0
KMC1 250620Z 26001KT 17/16 A3009 RMK A01 T01680157  RH  093%=      5-min Rain = 0
KMC1 250621Z 23001KT 17/16 A3009 RMK A01 T01680156  RH  093%=      5-min Rain = 0
KMC1 250622Z 23001KT 17/16 A3009 RMK A01 T01670156  RH  093%=      5-min Rain = 0
KMC1 250623Z 28000KT 17/16 A3009 RMK A01 T01670157  RH  093%=      5-min Rain = 0
KMC1 250624Z 24001KT 17/16 A3009 RMK A01 T01670156  RH  093%=      5-min Rain = 0
KMC1 250625Z 20001KT 17/16 A3009 RMK A01 T01660155  RH  093%=      5-min Rain = 0
KMC1 250626Z 00000KT 17/16 A3009 RMK A01 T01660155  RH  094%=      5-min Rain = 0
KMC1 250627Z 22000KT 17/16 A3009 RMK A01 T01650155  RH  094%=      5-min Rain = 0
KMC1 250628Z 23000KT 17/16 A3009 RMK A01 T01650155  RH  094%=      5-min Rain = 0
KMC1 250629Z 24000KT 17/16 A3009 RMK A01 T01650156  RH  094%=      5-min Rain = 0
KMC1 250630Z 26002KT 16/16 A3009 RMK A01 T01640156  RH  095%=      5-min Rain = 0
KMC1 250631Z 29002KT 16/16 A3009 RMK A01 T01640156  RH  095%=      5-min Rain = 0
KMC1 250632Z 29001KT 16/16 A3009 RMK A01 T01640156  RH  095%=      5-min Rain = 0
KMC1 250633Z 30002KT 16/16 A3009 RMK A01 T01630155  RH  095%=      5-min Rain = 0
KMC1 250634Z 29002KT 16/15 A3009 RMK A01 T01630154  RH  095%=      5-min Rain = 0
KMC1 250635Z 29002KT 16/16 A3009 RMK A01 T01630155  RH  095%=      5-min Rain = 0
KMC1 250636Z 29002KT 16/15 A3009 RMK A01 T01620154  RH  095%=      5-min Rain = 0
KMC1 250637Z 26002KT 16/15 A3009 RMK A01 T01620154  RH  095%=      5-min Rain = 0
KMC1 250638Z 26001KT 16/15 A3009 RMK A01 T01610154  RH  095%=      5-min Rain = 0
KMC1 250639Z 25002KT 16/15 A3009 RMK A01 T01610153  RH  095%=      5-min Rain = 0
KMC1 250640Z 25002KT 16/15 A3009 RMK A01 T01610153  RH  095%=      5-min Rain = 0
KMC1 250641Z 24003KT 16/15 A3009 RMK A01 T01600152  RH  095%=      5-min Rain = 0
KMC1 250642Z 23002KT 16/15 A3009 RMK A01 T01590153  RH  096%=      5-min Rain = 0
KMC1 250643Z 23002KT 16/15 A3009 RMK A01 T01590153  RH  096%=      5-min Rain = 0
KMC1 250644Z 22003KT 16/15 A3009 RMK A01 T01590153  RH  096%=      5-min Rain = 0
KMC1 250645Z 23003KT 16/15 A3009 RMK A01 T01590153  RH  096%=      5-min Rain = 0
KMC1 250646Z 23003KT 16/15 A3009 RMK A01 T01580152  RH  096%=      5-min Rain = 0
KMC1 250647Z 23003KT 16/15 A3009 RMK A01 T01580153  RH  097%=      5-min Rain = 0
KMC1 250648Z 22002KT 16/15 A3009 RMK A01 T01580153  RH  097%=      5-min Rain = 0
KMC1 250649Z 23003KT 16/15 A3009 RMK A01 T01580152  RH  097%=      5-min Rain = 0
KMC1 250650Z 23003KT 16/15 A3009 RMK A01 T01570152  RH  097%=      5-min Rain = 0
KMC1 250651Z 23003KT 16/15 A3009 RMK A01 T01570152  RH  097%=      5-min Rain = 0
KMC1 250652Z 22003KT 16/15 A3009 RMK A01 T01570152  RH  097%=      5-min Rain = 0
KMC1 250653Z 22003KT 16/15 A3009 RMK A01 T01570153  RH  097%=      5-min Rain = 0
KMC1 250654Z 22002KT 16/15 A3009 RMK A01 T01570153  RH  097%=      5-min Rain = 0
KMC1 250655Z 23001KT 16/15 A3009 RMK A01 T01570153  RH  097%=      5-min Rain = 0
KMC1 250656Z 22001KT 16/15 A3009 RMK A01 T01570153  RH  098%=      5-min Rain = 0
KMC1 250657Z 22001KT 16/15 A3009 RMK A01 T01570153  RH  098%=      5-min Rain = 0
KMC1 250658Z 22001KT 16/15 A3009 RMK A01 T01560152  RH  097%=      5-min Rain = 0
KMC1 250659Z 23001KT 16/15 A3009 RMK A01 T01560152  RH  098%=      5-min Rain = 0
KMC1 250700Z 25001KT 16/15 A3009 RMK A01 T01560153  RH  098%=      5-min Rain = 0
KMC1 250701Z 22000KT 16/15 A3009 RMK A01 T01560153  RH  098%=      5-min Rain = 0
KMC1 250702Z 23001KT 16/15 A3009 RMK A01 T01560152  RH  098%=      5-min Rain = 0
KMC1 250703Z 29001KT 16/15 A3009 RMK A01 T01560153  RH  098%=      5-min Rain = 0
KMC1 250704Z 27001KT 16/15 A3009 RMK A01 T01560153  RH  098%=      5-min Rain = 0
KMC1 250705Z 29001KT 16/15 A3009 RMK A01 T01560153  RH  098%=      5-min Rain = 0
KMC1 250706Z 25001KT 16/15 A3008 RMK A01 T01560153  RH  098%=      5-min Rain = 0
KMC1 250707Z 24000KT 16/15 A3008 RMK A01 T01560153  RH  098%=      5-min Rain = 0
KMC1 250708Z 25000KT 16/15 A3008 RMK A01 T01550152  RH  098%=      5-min Rain = 0
KMC1 250709Z 21002KT 16/15 A3008 RMK A01 T01550152  RH  098%=      5-min Rain = 0
KMC1 250710Z 22002KT 16/15 A3008 RMK A01 T01550153  RH  099%=      5-min Rain = 0
KMC1 250711Z 22002KT 16/15 A3008 RMK A01 T01560154  RH  099%=      5-min Rain = 0
KMC1 250712Z 22002KT 16/15 A3008 RMK A01 T01560153  RH  099%=      5-min Rain = 0
KMC1 250713Z 21002KT 16/15 A3008 RMK A01 T01550153  RH  098%=      5-min Rain = 0
KMC1 250714Z 21002KT 16/15 A3008 RMK A01 T01550153  RH  098%=      5-min Rain = 0
KMC1 250715Z 21003KT 16/15 A3008 RMK A01 T01550152  RH  098%=      5-min Rain = 0
KMC1 250716Z 21003KT 15/15 A3008 RMK A01 T01540151  RH  098%=      5-min Rain = 0
KMC1 250717Z 21003KT 15/15 A3008 RMK A01 T01540151  RH  098%=      5-min Rain = 0
KMC1 250718Z 21003KT 15/15 A3008 RMK A01 T01540152  RH  098%=      5-min Rain = 0
KMC1 250719Z 22003KT 15/15 A3008 RMK A01 T01540151  RH  098%=      5-min Rain = 0
KMC1 250720Z 21003KT 15/15 A3008 RMK A01 T01540151  RH  099%=      5-min Rain = 0
KMC1 250721Z 22003KT 15/15 A3008 RMK A01 T01530150  RH  098%=      5-min Rain = 0
KMC1 250722Z 23003KT 15/15 A3008 RMK A01 T01520150  RH  098%=      5-min Rain = 0
KMC1 250723Z 23004KT 15/15 A3008 RMK A01 T01520150  RH  099%=      5-min Rain = 0
KMC1 250724Z 24003KT 15/15 A3008 RMK A01 T01530151  RH  099%=      5-min Rain = 0
KMC1 250725Z 24003KT 15/15 A3008 RMK A01 T01530151  RH  099%=      5-min Rain = 0
KMC1 250726Z 24003KT 15/15 A3008 RMK A01 T01520151  RH  099%=      5-min Rain = 0
KMC1 250727Z 24003KT 15/15 A3008 RMK A01 T01520150  RH  099%=      5-min Rain = 0
KMC1 250728Z 24003KT 15/15 A3008 RMK A01 T01510149  RH  099%=      5-min Rain = 0
KMC1 250729Z 25003KT 15/15 A3008 RMK A01 T01510149  RH  099%=      5-min Rain = 0
KMC1 250730Z 25004KT 15/15 A3008 RMK A01 T01510150  RH  099%=      5-min Rain = 0
KMC1 250731Z 25004KT 15/15 A3008 RMK A01 T01510150  RH  099%=      5-min Rain = 0
KMC1 250732Z 25004KT 15/15 A3008 RMK A01 T01510150  RH  099%=      5-min Rain = 0
KMC1 250733Z 25004KT 15/15 A3008 RMK A01 T01510149  RH  099%=      5-min Rain = 0
KMC1 250734Z 25003KT 15/15 A3008 RMK A01 T01500148  RH  099%=      5-min Rain = 0
KMC1 250735Z 25003KT 15/15 A3008 RMK A01 T01490147  RH  099%=      5-min Rain = 0
KMC1 250736Z 25003KT 15/15 A3008 RMK A01 T01490147  RH  099%=      5-min Rain = 0
KMC1 250737Z 25003KT 15/15 A3008 RMK A01 T01490147  RH  099%=      5-min Rain = 0
KMC1 250738Z 25003KT 15/15 A3008 RMK A01 T01490148  RH  099%=      5-min Rain = 0
KMC1 250739Z 24003KT 15/15 A3008 RMK A01 T01490148  RH  099%=      5-min Rain = 0
KMC1 250740Z 24003KT 15/15 A3008 RMK A01 T01490148  RH  099%=      5-min Rain = 0
KMC1 250741Z 24002KT 15/15 A3008 RMK A01 T01500149  RH  100%=      5-min Rain = 0
KMC1 250742Z 24003KT 15/15 A3008 RMK A01 T01500149  RH  100%=      5-min Rain = 0
KMC1 250743Z 23002KT 15/15 A3008 RMK A01 T01500149  RH  100%=      5-min Rain = 0
KMC1 250744Z 23002KT 15/15 A3008 RMK A01 T01500149  RH  100%=      5-min Rain = 0
KMC1 250745Z 23002KT 15/15 A3008 RMK A01 T01500149  RH  100%=      5-min Rain = 0
KMC1 250746Z 23002KT 15/15 A3008 RMK A01 T01500150  RH  100%=      5-min Rain = 0
KMC1 250747Z 23001KT 15/15 A3008 RMK A01 T01490149  RH  100%=      5-min Rain = 0
KMC1 250748Z 24001KT 15/15 A3008 RMK A01 T01490149  RH  100%=      5-min Rain = 0
KMC1 250749Z 24001KT 15/15 A3008 RMK A01 T01490149  RH  100%=      5-min Rain = 0
KMC1 250750Z 23002KT 15/15 A3008 RMK A01 T01490149  RH  100%=      5-min Rain = 0
KMC1 250751Z 22001KT 15/15 A3008 RMK A01 T01490148  RH  100%=      5-min Rain = 0
KMC1 250752Z 21001KT 15/15 A3008 RMK A01 T01480148  RH  100%=      5-min Rain = 0
KMC1 250753Z 22001KT 15/15 A3008 RMK A01 T01480148  RH  100%=      5-min Rain = 0
KMC1 250754Z 23001KT 15/15 A3008 RMK A01 T01480148  RH  100%=      5-min Rain = 0
KMC1 250755Z 23001KT 15/15 A3008 RMK A01 T01480148  RH  100%=      5-min Rain = 0
KMC1 250756Z 24001KT 15/15 A3008 RMK A01 T01480148  RH  100%=      5-min Rain = 0
KMC1 250757Z 24002KT 15/15 A3008 RMK A01 T01480148  RH  100%=      5-min Rain = 0
KMC1 250758Z 25001KT 15/15 A3008 RMK A01 T01480149  RH  100%=      5-min Rain = 0
KMC1 250759Z 25001KT 15/15 A3008 RMK A01 T01480149  RH  100%=      5-min Rain = 0
KMC1 250800Z 25001KT 15/15 A3008 RMK A01 T01480148  RH  100%=      5-min Rain = 0
KMC1 250801Z 24002KT 15/15 A3008 RMK A01 T01470148  RH  100%=      5-min Rain = 0
KMC1 250802Z 22002KT 15/15 A3008 RMK A01 T01470147  RH  100%=      5-min Rain = 0
KMC1 250803Z 22002KT 15/15 A3008 RMK A01 T01450145  RH  100%=      5-min Rain = 0
KMC1 250804Z 23003KT 15/15 A3008 RMK A01 T01450145  RH  100%=      5-min Rain = 0
KMC1 250805Z 22003KT 15/14 A3008 RMK A01 T01450144  RH  100%=      5-min Rain = 0
KMC1 250806Z 23003KT 14/14 A3008 RMK A01 T01440144  RH  100%=      5-min Rain = 0
KMC1 250807Z 24003KT 14/14 A3008 RMK A01 T01440144  RH  100%=      5-min Rain = 0
KMC1 250808Z 25003KT 14/14 A3008 RMK A01 T01440144  RH  100%=      5-min Rain = 0
KMC1 250809Z 26003KT 14/14 A3008 RMK A01 T01440144  RH  100%=      5-min Rain = 0
KMC1 250810Z 25002KT 14/14 A3008 RMK A01 T01440144  RH  100%=      5-min Rain = 0
KMC1 250811Z 25003KT 14/14 A3008 RMK A01 T01440144  RH  100%=      5-min Rain = 0
KMC1 250812Z 25002KT 14/15 A3008 RMK A01 T01440145  RH  100%=      5-min Rain = 0
KMC1 250813Z 25002KT 14/14 A3008 RMK A01 T01440144  RH  100%=      5-min Rain = 0
KMC1 250814Z 25002KT 14/14 A3008 RMK A01 T01440144  RH  100%=      5-min Rain = 0
KMC1 250815Z 25002KT 14/14 A3008 RMK A01 T01430143  RH  100%=      5-min Rain = 0
KMC1 250816Z 24002KT 14/14 A3008 RMK A01 T01430143  RH  100%=      5-min Rain = 0
KMC1 250817Z 24002KT 14/14 A3008 RMK A01 T01430143  RH  100%=      5-min Rain = 0
KMC1 250818Z 24002KT 14/14 A3008 RMK A01 T01430144  RH  100%=      5-min Rain = 0
KMC1 250819Z 25002KT 14/14 A3008 RMK A01 T01440144  RH  100%=      5-min Rain = 0
KMC1 250820Z 25002KT 14/14 A3008 RMK A01 T01440144  RH  100%=      5-min Rain = 0
KMC1 250821Z 25002KT 14/15 A3008 RMK A01 T01440145  RH  100%=      5-min Rain = 0
KMC1 250822Z 26003KT 14/14 A3008 RMK A01 T01440144  RH  100%=      5-min Rain = 0
KMC1 250823Z 26003KT 14/14 A3008 RMK A01 T01440144  RH  100%=      5-min Rain = 0
KMC1 250824Z 26003KT 14/14 A3008 RMK A01 T01430143  RH  100%=      5-min Rain = 0
KMC1 250825Z 26003KT 14/14 A3008 RMK A01 T01430143  RH  100%=      5-min Rain = 0
KMC1 250826Z 26003KT 14/14 A3008 RMK A01 T01430143  RH  100%=      5-min Rain = 0
KMC1 250827Z 25003KT 14/14 A3008 RMK A01 T01420142  RH  100%=      5-min Rain = 0
KMC1 250828Z 25003KT 14/14 A3008 RMK A01 T01420142  RH  100%=      5-min Rain = 0
KMC1 250829Z 26003KT 14/14 A3008 RMK A01 T01420142  RH  100%=      5-min Rain = 0
KMC1 250830Z 25002KT 14/14 A3008 RMK A01 T01410141  RH  100%=      5-min Rain = 0
KMC1 250831Z 26003KT 14/14 A3008 RMK A01 T01410141  RH  100%=      5-min Rain = 0
KMC1 250832Z 26003KT 14/14 A3008 RMK A01 T01420142  RH  100%=      5-min Rain = 0
KMC1 250833Z 26004KT 14/14 A3008 RMK A01 T01420142  RH  100%=      5-min Rain = 0
KMC1 250834Z 26004KT 14/14 A3008 RMK A01 T01410141  RH  100%=      5-min Rain = 0
KMC1 250835Z 26004KT 14/14 A3008 RMK A01 T01400141  RH  100%=      5-min Rain = 0
KMC1 250836Z 26004KT 14/14 A3008 RMK A01 T01400140  RH  100%=      5-min Rain = 0
KMC1 250837Z 26004KT 14/14 A3008 RMK A01 T01400140  RH  100%=      5-min Rain = 0
KMC1 250838Z 26003KT 14/14 A3008 RMK A01 T01400140  RH  100%=      5-min Rain = 0
KMC1 250839Z 26003KT 14/14 A3008 RMK A01 T01400140  RH  100%=      5-min Rain = 0
KMC1 250840Z 26003KT 14/14 A3008 RMK A01 T01400140  RH  100%=      5-min Rain = 0
KMC1 250841Z 25003KT 14/14 A3008 RMK A01 T01400140  RH  100%=      5-min Rain = 0
KMC1 250842Z 25003KT 14/14 A3008 RMK A01 T01410141  RH  100%=      5-min Rain = 0
KMC1 250843Z 26003KT 14/14 A3008 RMK A01 T01410141  RH  100%=      5-min Rain = 0
KMC1 250844Z 25003KT 14/14 A3008 RMK A01 T01410141  RH  100%=      5-min Rain = 0
KMC1 250845Z 25003KT 14/14 A3008 RMK A01 T01410141  RH  100%=      5-min Rain = 0
KMC1 250846Z 25003KT 14/14 A3008 RMK A01 T01400140  RH  100%=      5-min Rain = 0
KMC1 250847Z 25004KT 14/14 A3008 RMK A01 T01400140  RH  100%=      5-min Rain = 0
KMC1 250848Z 24003KT 14/14 A3008 RMK A01 T01410141  RH  100%=      5-min Rain = 0
KMC1 250849Z 24003KT 14/14 A3008 RMK A01 T01400140  RH  100%=      5-min Rain = 0
KMC1 250850Z 24003KT 14/14 A3008 RMK A01 T01400140  RH  100%=      5-min Rain = 0
KMC1 250851Z 24003KT 14/14 A3008 RMK A01 T01400140  RH  100%=      5-min Rain = 0
KMC1 250852Z 25003KT 14/14 A3008 RMK A01 T01400140  RH  100%=      5-min Rain = 0
KMC1 250853Z 24003KT 14/14 A3008 RMK A01 T01400140  RH  100%=      5-min Rain = 0
KMC1 250854Z 25003KT 14/14 A3008 RMK A01 T01400140  RH  100%=      5-min Rain = 0
KMC1 250855Z 25003KT 14/14 A3008 RMK A01 T01400140  RH  100%=      5-min Rain = 0
KMC1 250856Z 25003KT 14/14 A3008 RMK A01 T01400140  RH  100%=      5-min Rain = 0
KMC1 250857Z 25003KT 14/14 A3008 RMK A01 T01400140  RH  100%=      5-min Rain = 0
KMC1 250858Z 25003KT 14/14 A3008 RMK A01 T01400140  RH  100%=      5-min Rain = 0
KMC1 250859Z 25003KT 14/14 A3008 RMK A01 T01400140  RH  100%=      5-min Rain = 0
KMC1 250900Z 25003KT 14/14 A3008 RMK A01 T01400140  RH  100%=      5-min Rain = 0
KMC1 250901Z 24003KT 14/14 A3008 RMK A01 T01390139  RH  100%=      5-min Rain = 0
KMC1 250902Z 25003KT 14/14 A3008 RMK A01 T01390139  RH  100%=      5-min Rain = 0
KMC1 250903Z 25003KT 14/14 A3008 RMK A01 T01400140  RH  100%=      5-min Rain = 0
KMC1 250904Z 24003KT 14/14 A3008 RMK A01 T01390139  RH  100%=      5-min Rain = 0
KMC1 250905Z 24003KT 14/14 A3008 RMK A01 T01380138  RH  100%=      5-min Rain = 0
KMC1 250906Z 24003KT 14/14 A3008 RMK A01 T01380138  RH  100%=      5-min Rain = 0
KMC1 250907Z 25003KT 14/14 A3008 RMK A01 T01380138  RH  100%=      5-min Rain = 0
KMC1 250908Z 25003KT 14/14 A3008 RMK A01 T01390139  RH  100%=      5-min Rain = 0
KMC1 250909Z 26002KT 14/14 A3008 RMK A01 T01390139  RH  100%=      5-min Rain = 0
KMC1 250910Z 27002KT 14/14 A3008 RMK A01 T01390139  RH  100%=      5-min Rain = 0
KMC1 250911Z 28002KT 14/14 A3008 RMK A01 T01400140  RH  100%=      5-min Rain = 0
KMC1 250912Z 29001KT 14/14 A3008 RMK A01 T01390139  RH  100%=      5-min Rain = 0
KMC1 250913Z 30002KT 14/14 A3008 RMK A01 T01390139  RH  100%=      5-min Rain = 0
KMC1 250914Z 31002KT 14/14 A3008 RMK A01 T01390139  RH  100%=      5-min Rain = 0
KMC1 250915Z 32002KT 14/14 A3008 RMK A01 T01390139  RH  100%=      5-min Rain = 0
KMC1 250916Z 34002KT 14/14 A3008 RMK A01 T01390139  RH  100%=      5-min Rain = 0
KMC1 250917Z 34002KT 14/14 A3008 RMK A01 T01390139  RH  100%=      5-min Rain = 0
KMC1 250918Z 34003KT 14/14 A3008 RMK A01 T01380138  RH  100%=      5-min Rain = 0
KMC1 250919Z 35004KT 14/14 A3008 RMK A01 T01370137  RH  100%=      5-min Rain = 0
KMC1 250920Z 35004KT 14/14 A3009 RMK A01 T01370138  RH  100%=      5-min Rain = 0
KMC1 250921Z 00004KT 14/14 A3009 RMK A01 T01380138  RH  100%=      5-min Rain = 0
KMC1 250922Z 01005KT 14/14 A3009 RMK A01 T01370138  RH  100%=      5-min Rain = 0
KMC1 250923Z 01005KT 14/14 A3009 RMK A01 T01360136  RH  100%=      5-min Rain = 0
KMC1 250924Z 01005KT 14/14 A3009 RMK A01 T01350135  RH  100%=      5-min Rain = 0
KMC1 250925Z 00005KT 13/13 A3009 RMK A01 T01340134  RH  100%=      5-min Rain = 0
KMC1 250926Z 00005KT 13/13 A3009 RMK A01 T01330134  RH  100%=      5-min Rain = 0
KMC1 250927Z 36005KT 13/13 A3009 RMK A01 T01330133  RH  100%=      5-min Rain = 0
KMC1 250928Z 35004KT 13/13 A3009 RMK A01 T01340134  RH  100%=      5-min Rain = 0
KMC1 250929Z 36004KT 14/14 A3009 RMK A01 T01360136  RH  100%=      5-min Rain = 0
KMC1 250930Z 00004KT 14/14 A3009 RMK A01 T01360136  RH  100%=      5-min Rain = 0
KMC1 250931Z 00003KT 14/14 A3009 RMK A01 T01360136  RH  100%=      5-min Rain = 0
KMC1 250932Z 00003KT 14/14 A3009 RMK A01 T01360136  RH  100%=      5-min Rain = 0
KMC1 250933Z 02002KT 14/14 A3009 RMK A01 T01370137  RH  100%=      5-min Rain = 0
KMC1 250934Z 02002KT 14/14 A3009 RMK A01 T01370137  RH  100%=      5-min Rain = 0
KMC1 250935Z 02002KT 13/13 A3009 RMK A01 T01330134  RH  100%=      5-min Rain = 0
KMC1 250936Z 03002KT 13/13 A3009 RMK A01 T01310131  RH  100%=      5-min Rain = 0
KMC1 250937Z 04002KT 13/13 A3009 RMK A01 T01280129  RH  100%=      5-min Rain = 0
KMC1 250938Z 05002KT 13/13 A3009 RMK A01 T01270127  RH  100%=      5-min Rain = 0
KMC1 250939Z 05003KT 13/13 A3009 RMK A01 T01260126  RH  100%=      5-min Rain = 0
KMC1 250940Z 05003KT 13/13 A3009 RMK A01 T01250125  RH  100%=      5-min Rain = 0
KMC1 250941Z 05003KT 12/12 A3009 RMK A01 T01240124  RH  100%=      5-min Rain = 0
KMC1 250942Z 04003KT 12/12 A3009 RMK A01 T01230123  RH  100%=      5-min Rain = 0
KMC1 250943Z 04003KT 12/12 A3009 RMK A01 T01230123  RH  100%=      5-min Rain = 0
KMC1 250944Z 04002KT 13/13 A3009 RMK A01 T01250125  RH  100%=      5-min Rain = 0
KMC1 250945Z 04002KT 13/13 A3009 RMK A01 T01250125  RH  100%=      5-min Rain = 0
KMC1 250946Z 05002KT 13/13 A3009 RMK A01 T01260126  RH  100%=      5-min Rain = 0
KMC1 250947Z 04001KT 13/13 A3009 RMK A01 T01270127  RH  100%=      5-min Rain = 0
KMC1 250948Z 06001KT 13/13 A3009 RMK A01 T01280128  RH  100%=      5-min Rain = 0
KMC1 250949Z 06001KT 13/13 A3009 RMK A01 T01290129  RH  100%=      5-min Rain = 0
KMC1 250950Z 08001KT 13/13 A3009 RMK A01 T01290130  RH  100%=      5-min Rain = 0
KMC1 250951Z 07001KT 13/13 A3009 RMK A01 T01300130  RH  100%=      5-min Rain = 0
KMC1 250952Z 08001KT 13/13 A3009 RMK A01 T01300130  RH  100%=      5-min Rain = 0
KMC1 250953Z 08001KT 13/13 A3009 RMK A01 T01310131  RH  100%=      5-min Rain = 0
KMC1 250954Z 08001KT 13/13 A3009 RMK A01 T01310131  RH  100%=      5-min Rain = 0
KMC1 250955Z 07001KT 13/13 A3009 RMK A01 T01310131  RH  100%=      5-min Rain = 0
KMC1 250956Z 07002KT 13/13 A3009 RMK A01 T01320132  RH  100%=      5-min Rain = 0
KMC1 250957Z 07002KT 13/13 A3009 RMK A01 T01330133  RH  100%=      5-min Rain = 0
KMC1 250958Z 05002KT 13/13 A3009 RMK A01 T01330133  RH  100%=      5-min Rain = 0
KMC1 250959Z 05002KT 13/13 A3009 RMK A01 T01330133  RH  100%=      5-min Rain = 0
KMC1 251000Z 05002KT 13/13 A3009 RMK A01 T01330133  RH  100%=      5-min Rain = 0
KMC1 251001Z 05002KT 13/13 A3009 RMK A01 T01330133  RH  100%=      5-min Rain = 0
KMC1 251002Z 05002KT 13/13 A3009 RMK A01 T01340134  RH  100%=      5-min Rain = 0
KMC1 251003Z 05002KT 13/13 A3009 RMK A01 T01340134  RH  100%=      5-min Rain = 0
KMC1 251004Z 04002KT 14/14 A3009 RMK A01 T01350135  RH  100%=      5-min Rain = 0
KMC1 251005Z 05002KT 14/14 A3009 RMK A01 T01350135  RH  100%=      5-min Rain = 0
KMC1 251006Z 05002KT 14/14 A301 RMK A01 T01360136  RH  100%=      5-min Rain = 0
KMC1 251007Z 06002KT 14/14 A301 RMK A01 T01370137  RH  100%=      5-min Rain = 0
KMC1 251008Z 05002KT 14/14 A301 RMK A01 T01370137  RH  100%=      5-min Rain = 0
KMC1 251009Z 05002KT 14/14 A301 RMK A01 T01360136  RH  100%=      5-min Rain = 0
KMC1 251010Z 06002KT 14/14 A301 RMK A01 T01360136  RH  100%=      5-min Rain = 0
KMC1 251011Z 07002KT 14/14 A301 RMK A01 T01370137  RH  100%=      5-min Rain = 0
KMC1 251012Z 08002KT 14/14 A301 RMK A01 T01370137  RH  100%=      5-min Rain = 0
KMC1 251013Z 08002KT 14/14 A301 RMK A01 T01370137  RH  100%=      5-min Rain = 0
KMC1 251014Z 09002KT 14/14 A301 RMK A01 T01370137  RH  100%=      5-min Rain = 0
KMC1 251015Z 08002KT 14/14 A301 RMK A01 T01370137  RH  100%=      5-min Rain = 0
KMC1 251016Z 07002KT 14/14 A301 RMK A01 T01370137  RH  100%=      5-min Rain = 0
KMC1 251017Z 06002KT 14/14 A301 RMK A01 T01370137  RH  100%=      5-min Rain = 0
KMC1 251018Z 05002KT 14/14 A301 RMK A01 T01370137  RH  100%=      5-min Rain = 0
KMC1 251019Z 04002KT 14/14 A301 RMK A01 T01370138  RH  100%=      5-min Rain = 0
KMC1 251020Z 04002KT 14/14 A301 RMK A01 T01380138  RH  100%=      5-min Rain = 0
KMC1 251021Z 05002KT 14/14 A301 RMK A01 T01380139  RH  100%=      5-min Rain = 0
KMC1 251022Z 07002KT 14/14 A301 RMK A01 T01390139  RH  100%=      5-min Rain = 0
KMC1 251023Z 07002KT 14/14 A301 RMK A01 T01390139  RH  100%=      5-min Rain = 0
KMC1 251024Z 09002KT 14/14 A301 RMK A01 T01390140  RH  100%=      5-min Rain = 0
KMC1 251025Z 09002KT 14/14 A301 RMK A01 T01390139  RH  100%=      5-min Rain = 0
KMC1 251026Z 09002KT 14/14 A301 RMK A01 T01390139  RH  100%=      5-min Rain = 0
KMC1 251027Z 09002KT 14/14 A301 RMK A01 T01400140  RH  100%=      5-min Rain = 0
KMC1 251028Z 09002KT 14/14 A301 RMK A01 T01400140  RH  100%=      5-min Rain = 0
KMC1 251029Z 10002KT 14/14 A301 RMK A01 T01400140  RH  100%=      5-min Rain = 0
KMC1 251030Z 10002KT 14/14 A301 RMK A01 T01400140  RH  100%=      5-min Rain = 0
KMC1 251031Z 10002KT 14/14 A301 RMK A01 T01400141  RH  100%=      5-min Rain = 0
KMC1 251032Z 10002KT 14/14 A301 RMK A01 T01410141  RH  100%=      5-min Rain = 0
KMC1 251033Z 09002KT 14/14 A301 RMK A01 T01410141  RH  100%=      5-min Rain = 0
KMC1 251034Z 10002KT 14/14 A301 RMK A01 T01420142  RH  100%=      5-min Rain = 0
KMC1 251035Z 10002KT 14/14 A301 RMK A01 T01420142  RH  100%=      5-min Rain = 0
KMC1 251036Z 11003KT 14/14 A301 RMK A01 T01430143  RH  100%=      5-min Rain = 0
KMC1 251037Z 12003KT 14/14 A301 RMK A01 T01430143  RH  100%=      5-min Rain = 0
KMC1 251038Z 11003KT 14/14 A3011 RMK A01 T01430144  RH  100%=      5-min Rain = 0
KMC1 251039Z 11003KT 14/14 A3011 RMK A01 T01440144  RH  100%=      5-min Rain = 0
KMC1 251040Z 10003KT 14/14 A3011 RMK A01 T01440144  RH  100%=      5-min Rain = 0
KMC1 251041Z 09002KT 15/15 A3011 RMK A01 T01450145  RH  100%=      5-min Rain = 0
KMC1 251042Z 08002KT 15/15 A3011 RMK A01 T01450145  RH  100%=      5-min Rain = 0
KMC1 251043Z 09002KT 15/15 A3011 RMK A01 T01450145  RH  100%=      5-min Rain = 0
KMC1 251044Z 10002KT 15/15 A3011 RMK A01 T01450145  RH  100%=      5-min Rain = 0
KMC1 251045Z 11002KT 15/15 A3011 RMK A01 T01450145  RH  100%=      5-min Rain = 0
KMC1 251046Z 11003KT 15/15 A3011 RMK A01 T01460146  RH  100%=      5-min Rain = 0
KMC1 251047Z 10003KT 15/15 A3011 RMK A01 T01460146  RH  100%=      5-min Rain = 0
KMC1 251048Z 09003KT 15/15 A3011 RMK A01 T01460146  RH  100%=      5-min Rain = 0
KMC1 251049Z 08003KT 15/15 A3011 RMK A01 T01460146  RH  100%=      5-min Rain = 0
KMC1 251050Z 07002KT 15/15 A3011 RMK A01 T01460146  RH  100%=      5-min Rain = 0
KMC1 251051Z 07003KT 15/15 A3011 RMK A01 T01460146  RH  100%=      5-min Rain = 0
KMC1 251052Z 07002KT 15/15 A3011 RMK A01 T01460146  RH  100%=      5-min Rain = 0
KMC1 251053Z 07003KT 15/15 A3011 RMK A01 T01460146  RH  100%=      5-min Rain = 0
KMC1 251054Z 07003KT 15/15 A3011 RMK A01 T01460146  RH  100%=      5-min Rain = 0
KMC1 251055Z 07003KT 15/15 A3011 RMK A01 T01460146  RH  100%=      5-min Rain = 0
KMC1 251056Z 07002KT 15/15 A3011 RMK A01 T01460146  RH  100%=      5-min Rain = 0
KMC1 251057Z 07002KT 15/15 A3011 RMK A01 T01460146  RH  100%=      5-min Rain = 0
KMC1 251058Z 08002KT 15/15 A3011 RMK A01 T01460147  RH  100%=      5-min Rain = 0
KMC1 251059Z 09002KT 15/15 A3011 RMK A01 T01460146  RH  100%=      5-min Rain = 0
KMC1 251100Z 10003KT 15/15 A3011 RMK A01 T01460146  RH  100%=      5-min Rain = 0
KMC1 251101Z 10003KT 15/15 A3011 RMK A01 T01460146  RH  100%=      5-min Rain = 0
KMC1 251102Z 10002KT 15/15 A3011 RMK A01 T01460146  RH  100%=      5-min Rain = 0
KMC1 251103Z 10002KT 15/15 A3011 RMK A01 T01460146  RH  100%=      5-min Rain = 0
KMC1 251104Z 10002KT 15/15 A3011 RMK A01 T01460146  RH  100%=      5-min Rain = 0
KMC1 251105Z 10002KT 15/15 A3011 RMK A01 T01460147  RH  100%=      5-min Rain = 0
KMC1 251106Z 10003KT 15/15 A3011 RMK A01 T01470147  RH  100%=      5-min Rain = 0
KMC1 251107Z 11003KT 15/15 A3011 RMK A01 T01470147  RH  100%=      5-min Rain = 0
KMC1 251108Z 11003KT 15/15 A3011 RMK A01 T01470147  RH  100%=      5-min Rain = 0
KMC1 251109Z 11003KT 15/15 A3011 RMK A01 T01480148  RH  100%=      5-min Rain = 0
KMC1 251110Z 11004KT 15/15 A3011 RMK A01 T01480148  RH  100%=      5-min Rain = 0
KMC1 251111Z 12003KT 15/15 A3011 RMK A01 T01480148  RH  100%=      5-min Rain = 0
KMC1 251112Z 12003KT 15/15 A3011 RMK A01 T01490149  RH  100%=      5-min Rain = 0
KMC1 251113Z 14002KT 15/15 A3011 RMK A01 T01490149  RH  100%=      5-min Rain = 0
KMC1 251114Z 14002KT 15/15 A3011 RMK A01 T01490149  RH  100%=      5-min Rain = 0
KMC1 251115Z 15002KT 15/15 A3011 RMK A01 T01500150  RH  100%=      5-min Rain = 0
KMC1 251116Z 15002KT 15/15 A3011 RMK A01 T01500150  RH  100%=      5-min Rain = 0
KMC1 251117Z 15002KT 15/15 A3011 RMK A01 T01500150  RH  100%=      5-min Rain = 0
KMC1 251118Z 16002KT 15/15 A3011 RMK A01 T01500150  RH  100%=      5-min Rain = 0
KMC1 251119Z 18003KT 15/15 A3011 RMK A01 T01500151  RH  100%=      5-min Rain = 0
KMC1 251120Z 19002KT 15/15 A3011 RMK A01 T01510151  RH  100%=      5-min Rain = 0
KMC1 251121Z 16002KT 15/15 A3011 RMK A01 T01510151  RH  100%=      5-min Rain = 0
KMC1 251122Z 16003KT 15/15 A3011 RMK A01 T01510151  RH  100%=      5-min Rain = 0
KMC1 251123Z 16003KT 15/15 A3011 RMK A01 T01520152  RH  100%=      5-min Rain = 0
KMC1 251124Z 17003KT 15/15 A3011 RMK A01 T01520152  RH  100%=      5-min Rain = 0
KMC1 251125Z 17003KT 15/15 A3011 RMK A01 T01510152  RH  100%=      5-min Rain = 0
KMC1 251126Z 17003KT 15/15 A3011 RMK A01 T01520152  RH  100%=      5-min Rain = 0
KMC1 251127Z 18003KT 15/15 A3011 RMK A01 T01520152  RH  100%=      5-min Rain = 0
KMC1 251128Z 17004KT 15/15 A3011 RMK A01 T01520152  RH  100%=      5-min Rain = 0
KMC1 251129Z 17003KT 15/15 A3011 RMK A01 T01520152  RH  100%=      5-min Rain = 0
KMC1 251130Z 17003KT 15/15 A3011 RMK A01 T01520152  RH  100%=      5-min Rain = 0
KMC1 251131Z 17003KT 15/15 A3011 RMK A01 T01520152  RH  100%=      5-min Rain = 0
KMC1 251132Z 17003KT 15/15 A3011 RMK A01 T01520152  RH  100%=      5-min Rain = 0
KMC1 251133Z 17003KT 15/15 A3011 RMK A01 T01520152  RH  100%=      5-min Rain = 0
KMC1 251134Z 17003KT 15/15 A3011 RMK A01 T01520152  RH  100%=      5-min Rain = 0
KMC1 251135Z 19003KT 15/15 A3011 RMK A01 T01530153  RH  100%=      5-min Rain = 0
KMC1 251136Z 18003KT 15/15 A3011 RMK A01 T01520153  RH  100%=      5-min Rain = 0
KMC1 251137Z 17003KT 15/15 A3011 RMK A01 T01530153  RH  100%=      5-min Rain = 0
KMC1 251138Z 17003KT 15/15 A3011 RMK A01 T01530153  RH  100%=      5-min Rain = 0
KMC1 251139Z 16003KT 15/15 A3011 RMK A01 T01530153  RH  100%=      5-min Rain = 0
KMC1 251140Z 17003KT 15/15 A3011 RMK A01 T01530153  RH  100%=      5-min Rain = 0
KMC1 251141Z 18003KT 15/15 A3011 RMK A01 T01530153  RH  100%=      5-min Rain = 0
KMC1 251142Z 18002KT 15/15 A3011 RMK A01 T01540154  RH  100%=      5-min Rain = 0
KMC1 251143Z 19002KT 15/15 A3011 RMK A01 T01540154  RH  100%=      5-min Rain = 0
KMC1 251144Z 20002KT 15/15 A3011 RMK A01 T01530154  RH  100%=      5-min Rain = 0
KMC1 251145Z 20002KT 15/15 A3011 RMK A01 T01540154  RH  100%=      5-min Rain = 0
KMC1 251146Z 19002KT 15/15 A3011 RMK A01 T01530154  RH  100%=      5-min Rain = 0
KMC1 251147Z 19002KT 15/15 A3011 RMK A01 T01540154  RH  100%=      5-min Rain = 0
KMC1 251148Z 18002KT 15/15 A3011 RMK A01 T01530154  RH  100%=      5-min Rain = 0
KMC1 251149Z 18003KT 15/15 A3011 RMK A01 T01530153  RH  100%=      5-min Rain = 0
KMC1 251150Z 18002KT 15/15 A3011 RMK A01 T01540154  RH  100%=      5-min Rain = 0
KMC1 251151Z 17003KT 15/15 A3011 RMK A01 T01540154  RH  100%=      5-min Rain = 0
KMC1 251152Z 18003KT 15/15 A3011 RMK A01 T01530153  RH  100%=      5-min Rain = 0
KMC1 251153Z 18003KT 15/15 A3011 RMK A01 T01540154  RH  100%=      5-min Rain = 0
KMC1 251154Z 18003KT 15/15 A3011 RMK A01 T01540154  RH  100%=      5-min Rain = 0
KMC1 251155Z 17004KT 15/15 A3011 RMK A01 T01530154  RH  100%=      5-min Rain = 0
KMC1 251156Z 17003KT 15/15 A3011 RMK A01 T01540154  RH  100%=      5-min Rain = 0
KMC1 251157Z 17004KT 15/15 A3011 RMK A01 T01540154  RH  100%=      5-min Rain = 0
KMC1 251158Z 17003KT 16/16 A3011 RMK A01 T01550155  RH  100%=      5-min Rain = 0
KMC1 251159Z 17003KT 16/16 A3011 RMK A01 T01550155  RH  100%=      5-min Rain = 0
KMC1 251200Z 17002KT 16/16 A3011 RMK A01 T01550155  RH  100%=      5-min Rain = 0
KMC1 251201Z 17002KT 16/16 A3011 RMK A01 T01550155  RH  100%=      5-min Rain = 0
KMC1 251202Z 17003KT 16/16 A3011 RMK A01 T01560156  RH  100%=      5-min Rain = 0
KMC1 251203Z 17002KT 16/16 A3011 RMK A01 T01560156  RH  100%=      5-min Rain = 0
KMC1 251204Z 18002KT 16/16 A3011 RMK A01 T01560156  RH  100%=      5-min Rain = 0
KMC1 251205Z 17002KT 16/16 A3011 RMK A01 T01560156  RH  100%=      5-min Rain = 0
KMC1 251206Z 17002KT 16/16 A3011 RMK A01 T01560156  RH  100%=      5-min Rain = 0
KMC1 251207Z 17002KT 16/16 A3011 RMK A01 T01560156  RH  100%=      5-min Rain = 0
KMC1 251208Z 19002KT 16/16 A3012 RMK A01 T01560156  RH  100%=      5-min Rain = 0
KMC1 251209Z 19002KT 16/16 A3012 RMK A01 T01560156  RH  100%=      5-min Rain = 0
KMC1 251210Z 19002KT 16/16 A3012 RMK A01 T01560156  RH  100%=      5-min Rain = 0
KMC1 251211Z 18002KT 16/16 A3012 RMK A01 T01560156  RH  100%=      5-min Rain = 0
KMC1 251212Z 19003KT 16/16 A3012 RMK A01 T01560156  RH  100%=      5-min Rain = 0
KMC1 251213Z 18003KT 16/16 A3012 RMK A01 T01560156  RH  100%=      5-min Rain = 0
KMC1 251214Z 19002KT 16/16 A3012 RMK A01 T01560156  RH  100%=      5-min Rain = 0
KMC1 251215Z 20002KT 16/16 A3012 RMK A01 T01560156  RH  100%=      5-min Rain = 0
KMC1 251216Z 22002KT 16/16 A3012 RMK A01 T01560156  RH  100%=      5-min Rain = 0
KMC1 251217Z 22001KT 16/16 A3012 RMK A01 T01550156  RH  100%=      5-min Rain = 0
KMC1 251218Z 23001KT 16/16 A3012 RMK A01 T01550155  RH  100%=      5-min Rain = 0
KMC1 251219Z 25001KT 15/15 A3012 RMK A01 T01540154  RH  100%=      5-min Rain = 0
KMC1 251220Z 23001KT 15/15 A3012 RMK A01 T01530153  RH  100%=      5-min Rain = 0
KMC1 251221Z 22001KT 15/15 A3013 RMK A01 T01520152  RH  100%=      5-min Rain = 0
KMC1 251222Z 22001KT 15/15 A3013 RMK A01 T01520152  RH  100%=      5-min Rain = 0
KMC1 251223Z 28001KT 15/15 A3013 RMK A01 T01520152  RH  100%=      5-min Rain = 0
KMC1 251224Z 31002KT 15/15 A3013 RMK A01 T01520152  RH  100%=      5-min Rain = 0
KMC1 251225Z 32003KT 15/15 A3013 RMK A01 T01520152  RH  100%=      5-min Rain = 0
KMC1 251226Z 33003KT 15/15 A3013 RMK A01 T01520152  RH  100%=      5-min Rain = 0
KMC1 251227Z 33003KT 15/15 A3014 RMK A01 T01510151  RH  100%=      5-min Rain = 0
KMC1 251228Z 33003KT 15/15 A3014 RMK A01 T01510151  RH  100%=      5-min Rain = 0
KMC1 251229Z 34004KT 15/15 A3014 RMK A01 T01510152  RH  100%=      5-min Rain = 0
KMC1 251230Z 33004KT 15/15 A3014 RMK A01 T01510151  RH  100%=      5-min Rain = 0
KMC1 251231Z 33004KT 15/15 A3014 RMK A01 T01510151  RH  100%=      5-min Rain = 0
KMC1 251232Z 33005KT 15/15 A3014 RMK A01 T01510151  RH  100%=      5-min Rain = 0
KMC1 251233Z 34004KT 15/15 A3014 RMK A01 T01510151  RH  100%=      5-min Rain = 0
KMC1 251234Z 34004KT 15/15 A3014 RMK A01 T01510151  RH  100%=      5-min Rain = 0
KMC1 251235Z 34005KT 15/15 A3014 RMK A01 T01510151  RH  100%=      5-min Rain = 0
KMC1 251236Z 35005KT 15/15 A3014 RMK A01 T01510151  RH  100%=      5-min Rain = 0
KMC1 251237Z 35005KT 15/15 A3015 RMK A01 T01510151  RH  100%=      5-min Rain = 0
KMC1 251238Z 34005KT 15/15 A3015 RMK A01 T01520152  RH  100%=      5-min Rain = 0
KMC1 251239Z 34005KT 15/15 A3015 RMK A01 T01520152  RH  100%=      5-min Rain = 0
KMC1 251240Z 34006KT 15/15 A3015 RMK A01 T01530153  RH  100%=      5-min Rain = 0
KMC1 251241Z 34005KT 15/15 A3015 RMK A01 T01530153  RH  100%=      5-min Rain = 0
KMC1 251242Z 34005KT 15/15 A3015 RMK A01 T01530153  RH  100%=      5-min Rain = 0
KMC1 251243Z 34004KT 15/15 A3015 RMK A01 T01530154  RH  100%=      5-min Rain = 0
KMC1 251244Z 34004KT 15/15 A3015 RMK A01 T01530154  RH  100%=      5-min Rain = 0
KMC1 251245Z 34004KT 15/15 A3015 RMK A01 T01540154  RH  100%=      5-min Rain = 0
KMC1 251246Z 35004KT 15/15 A3015 RMK A01 T01540154  RH  100%=      5-min Rain = 0
KMC1 251247Z 36003KT 15/16 A3015 RMK A01 T01540155  RH  100%=      5-min Rain = 0
KMC1 251248Z 36002KT 15/16 A3015 RMK A01 T01540155  RH  100%=      5-min Rain = 0
KMC1 251249Z 35001KT 16/16 A3015 RMK A01 T01550155  RH  100%=      5-min Rain = 0
KMC1 251250Z 00000KT 16/16 A3015 RMK A01 T01550155  RH  100%=      5-min Rain = 0
KMC1 251251Z 23000KT 16/16 A3015 RMK A01 T01550155  RH  100%=      5-min Rain = 0
KMC1 251252Z 19001KT 16/16 A3015 RMK A01 T01550155  RH  100%=      5-min Rain = 0
KMC1 251253Z 19001KT 16/16 A3014 RMK A01 T01550155  RH  100%=      5-min Rain = 0
KMC1 251254Z 20001KT 16/16 A3015 RMK A01 T01560156  RH  100%=      5-min Rain = 0
KMC1 251255Z 20001KT 16/16 A3015 RMK A01 T01550155  RH  100%=      5-min Rain = 0
KMC1 251256Z 00000KT 16/16 A3015 RMK A01 T01550156  RH  100%=      5-min Rain = 0
KMC1 251257Z 28000KT 16/16 A3015 RMK A01 T01550155  RH  100%=      5-min Rain = 0
KMC1 251258Z 31001KT 16/16 A3015 RMK A01 T01560156  RH  100%=      5-min Rain = 0
KMC1 251259Z 31001KT 16/16 A3015 RMK A01 T01560156  RH  100%=      5-min Rain = 0
KMC1 251300Z 33001KT 16/16 A3015 RMK A01 T01560156  RH  100%=      5-min Rain = 0
KMC1 251301Z 33001KT 16/16 A3015 RMK A01 T01560156  RH  100%=      5-min Rain = 0
KMC1 251302Z 00000KT 16/16 A3015 RMK A01 T01560157  RH  100%=      5-min Rain = 0
KMC1 251303Z 00001KT 16/16 A3015 RMK A01 T01570157  RH  100%=      5-min Rain = 0
KMC1 251304Z 36001KT 16/16 A3015 RMK A01 T01570157  RH  100%=      5-min Rain = 0
KMC1 251305Z 34002KT 16/16 A3016 RMK A01 T01570157  RH  100%=      5-min Rain = 0
KMC1 251306Z 34002KT 16/16 A3016 RMK A01 T01570157  RH  100%=      5-min Rain = 0
KMC1 251307Z 36002KT 16/16 A3016 RMK A01 T01570157  RH  100%=      5-min Rain = 0
KMC1 251308Z 36002KT 16/16 A3016 RMK A01 T01570158  RH  100%=      5-min Rain = 0
KMC1 251309Z 01002KT 16/16 A3016 RMK A01 T01580158  RH  100%=      5-min Rain = 0
KMC1 251310Z 02001KT 16/16 A3016 RMK A01 T01570158  RH  100%=      5-min Rain = 0
KMC1 251311Z 00001KT 16/16 A3016 RMK A01 T01580158  RH  100%=      5-min Rain = 0
KMC1 251312Z 00000KT 16/16 A3016 RMK A01 T01580158  RH  100%=      5-min Rain = 0
KMC1 251313Z 02001KT 16/16 A3016 RMK A01 T01580158  RH  100%=      5-min Rain = 0
KMC1 251314Z 04002KT 16/16 A3016 RMK A01 T01580158  RH  100%=      5-min Rain = 0
KMC1 251315Z 06002KT 16/16 A3016 RMK A01 T01580158  RH  100%=      5-min Rain = 0
KMC1 251316Z 07002KT 16/16 A3016 RMK A01 T01580158  RH  100%=      5-min Rain = 0
KMC1 251317Z 07002KT 16/16 A3016 RMK A01 T01580158  RH  100%=      5-min Rain = 0
KMC1 251318Z 06002KT 16/16 A3016 RMK A01 T01580158  RH  100%=      5-min Rain = 0
KMC1 251319Z 06002KT 16/16 A3016 RMK A01 T01580158  RH  100%=      5-min Rain = 0
KMC1 251320Z 06002KT 16/16 A3016 RMK A01 T01580158  RH  100%=      5-min Rain = 0
KMC1 251321Z 06002KT 16/16 A3016 RMK A01 T01580158  RH  100%=      5-min Rain = 0
KMC1 251322Z 05003KT 16/16 A3016 RMK A01 T01580158  RH  100%=      5-min Rain = 0
KMC1 251323Z 04003KT 16/16 A3016 RMK A01 T01580158  RH  100%=      5-min Rain = 0
KMC1 251324Z 04003KT 16/16 A3016 RMK A01 T01570158  RH  100%=      5-min Rain = 0
KMC1 251325Z 04002KT 16/16 A3016 RMK A01 T01580158  RH  100%=      5-min Rain = 0
KMC1 251326Z 04002KT 16/16 A3016 RMK A01 T01580158  RH  100%=      5-min Rain = 0
KMC1 251327Z 04002KT 16/16 A3016 RMK A01 T01580158  RH  100%=      5-min Rain = 0
KMC1 251328Z 04002KT 16/16 A3017 RMK A01 T01580158  RH  100%=      5-min Rain = 0
KMC1 251329Z 03002KT 16/16 A3017 RMK A01 T01570158  RH  100%=      5-min Rain = 0
KMC1 251330Z 03003KT 16/16 A3017 RMK A01 T01580158  RH  100%=      5-min Rain = 0
KMC1 251331Z 03003KT 16/16 A3017 RMK A01 T01580158  RH  100%=      5-min Rain = 0
KMC1 251332Z 03002KT 16/16 A3017 RMK A01 T01580158  RH  100%=      5-min Rain = 0
KMC1 251333Z 03003KT 16/16 A3017 RMK A01 T01580158  RH  100%=      5-min Rain = 0
KMC1 251334Z 02004KT 16/16 A3017 RMK A01 T01580158  RH  100%=      5-min Rain = 0
KMC1 251335Z 02003KT 16/16 A3017 RMK A01 T01590159  RH  100%=      5-min Rain = 0
KMC1 251336Z 02003KT 16/16 A3017 RMK A01 T01590159  RH  100%=      5-min Rain = 0
KMC1 251337Z 03002KT 16/16 A3017 RMK A01 T01590159  RH  100%=      5-min Rain = 0
KMC1 251338Z 03004KT 16/16 A3017 RMK A01 T01590160  RH  100%=      5-min Rain = 0
KMC1 251339Z 03004KT 16/16 A3017 RMK A01 T01600160  RH  100%=      5-min Rain = 0
KMC1 251340Z 04004KT 16/16 A3017 RMK A01 T01600160  RH  100%=      5-min Rain = 0
KMC1 251341Z 04004KT 16/16 A3017 RMK A01 T01600160  RH  100%=      5-min Rain = 0
KMC1 251342Z 03005KT 16/16 A3017 RMK A01 T01600160  RH  100%=      5-min Rain = 0
KMC1 251343Z 02005KT 16/16 A3017 RMK A01 T01600160  RH  100%=      5-min Rain = 0
KMC1 251344Z 03004KT 16/16 A3017 RMK A01 T01600160  RH  100%=      5-min Rain = 0
KMC1 251345Z 03004KT 16/16 A3017 RMK A01 T01600160  RH  100%=      5-min Rain = 0
KMC1 251346Z 02005KT 16/16 A3017 RMK A01 T01610161  RH  100%=      5-min Rain = 0
KMC1 251347Z 03005KT 16/16 A3018 RMK A01 T01610161  RH  100%=      5-min Rain = 0
KMC1 251348Z 03005KT 16/16 A3018 RMK A01 T01610161  RH  100%=      5-min Rain = 0
KMC1 251349Z 04004KT 16/16 A3018 RMK A01 T01610161  RH  100%=      5-min Rain = 0
KMC1 251350Z 03005KT 16/16 A3018 RMK A01 T01610161  RH  100%=      5-min Rain = 0
KMC1 251351Z 03005KT 16/16 A3018 RMK A01 T01600160  RH  100%=      5-min Rain = 0
KMC1 251352Z 04005KT 16/16 A3018 RMK A01 T01600158  RH  099%=      5-min Rain = 0
KMC1 251353Z 04005KT 16/16 A3018 RMK A01 T01600156  RH  098%=      5-min Rain = 0
KMC1 251354Z 03005KT 16/15 A3018 RMK A01 T01590153  RH  096%=      5-min Rain = 0
KMC1 251355Z 03005KT 16/15 A3018 RMK A01 T01600150  RH  094%=      5-min Rain = 0
KMC1 251356Z 03004KT 16/15 A3018 RMK A01 T01600147  RH  092%=      5-min Rain = 0
KMC1 251357Z 02004KT 16/15 A3018 RMK A01 T01610148  RH  092%=      5-min Rain = 0
KMC1 251358Z 03003KT 16/15 A3018 RMK A01 T01620147  RH  091%=      5-min Rain = 0
KMC1 251359Z 03004KT 16/15 A3018 RMK A01 T01630148  RH  091%=      5-min Rain = 0
KMC1 251400Z 02003KT 16/15 A3018 RMK A01 T01630147  RH  090%=      5-min Rain = 0
KMC1 251401Z 03003KT 16/15 A3018 RMK A01 T01640146  RH  090%=      5-min Rain = 0
KMC1 251402Z 03005KT 16/15 A3018 RMK A01 T01640145  RH  088%=      5-min Rain = 0
KMC1 251403Z 02005KT 16/14 A3018 RMK A01 T01640141  RH  086%=      5-min Rain = 0
KMC1 251404Z 03005KT 16/14 A3018 RMK A01 T01640141  RH  086%=      5-min Rain = 0
KMC1 251405Z 03006KT 16/14 A3018 RMK A01 T01640140  RH  086%=      5-min Rain = 0
KMC1 251406Z 03005KT 16/14 A3018 RMK A01 T01640138  RH  085%=      5-min Rain = 0
KMC1 251407Z 03006KT 16/14 A3018 RMK A01 T01640137  RH  084%=      5-min Rain = 0
KMC1 251408Z 03006KT 16/13 A3018 RMK A01 T01640133  RH  082%=      5-min Rain = 0
KMC1 251409Z 03007KT 16/13 A3018 RMK A01 T01640132  RH  082%=      5-min Rain = 0
KMC1 251410Z 04005KT 16/13 A3018 RMK A01 T01640130  RH  080%=      5-min Rain = 0
KMC1 251411Z 04006KT 16/13 A3018 RMK A01 T01640132  RH  082%=      5-min Rain = 0
KMC1 251412Z 03005KT 16/13 A3018 RMK A01 T01640129  RH  080%=      5-min Rain = 0
KMC1 251413Z 03005KT 16/13 A3018 RMK A01 T01640131  RH  081%=      5-min Rain = 0
KMC1 251414Z 03005KT 17/13 A3018 RMK A01 T01650130  RH  080%=      5-min Rain = 0
KMC1 251415Z 02005KT 17/13 A3018 RMK A01 T01650130  RH  079%=      5-min Rain = 0
KMC1 251416Z 03004KT 17/13 A3018 RMK A01 T01650130  RH  080%=      5-min Rain = 0
KMC1 251417Z 03004KT 17/13 A3019 RMK A01 T01660129  RH  079%=      5-min Rain = 0
KMC1 251418Z 03004KT 17/13 A3019 RMK A01 T01670130  RH  079%=      5-min Rain = 0
KMC1 251419Z 03005KT 17/13 A3019 RMK A01 T01680129  RH  077%=      5-min Rain = 0
KMC1 251420Z 04003KT 17/13 A3019 RMK A01 T01690131  RH  078%=      5-min Rain = 0
KMC1 251421Z 03004KT 17/13 A3019 RMK A01 T01700129  RH  077%=      5-min Rain = 0
KMC1 251422Z 03006KT 17/13 A3019 RMK A01 T01700129  RH  077%=      5-min Rain = 0
KMC1 251423Z 03006KT 17/13 A3019 RMK A01 T01700128  RH  076%=      5-min Rain = 0
KMC1 251424Z 02005KT 17/13 A3019 RMK A01 T01700129  RH  077%=      5-min Rain = 0
KMC1 251425Z 05004KT 17/13 A3019 RMK A01 T01710131  RH  077%=      5-min Rain = 0
KMC1 251426Z 04004KT 17/13 A3019 RMK A01 T01720133  RH  078%=      5-min Rain = 0
KMC1 251427Z 04005KT 17/13 A3019 RMK A01 T01740133  RH  077%=      5-min Rain = 0
KMC1 251428Z 05006KT 17/13 A3019 RMK A01 T01740131  RH  076%=      5-min Rain = 0
KMC1 251429Z 04005KT 17/13 A3019 RMK A01 T01730131  RH  076%=      5-min Rain = 0
KMC1 251430Z 03006KT 17/13 A3019 RMK A01 T01720131  RH  077%=      5-min Rain = 0
KMC1 251431Z 03004KT 17/13 A3019 RMK A01 T01720132  RH  077%=      5-min Rain = 0
KMC1 251432Z 02004KT 17/14 A3019 RMK A01 T01740136  RH  078%=      5-min Rain = 0
KMC1 251433Z 03007KT 18/14 A3019 RMK A01 T01760137  RH  078%=      5-min Rain = 0
KMC1 251434Z 00004KT 18/14 A3019 RMK A01 T01770135  RH  076%=      5-min Rain = 0
KMC1 251435Z 03005KT 18/14 A3019 RMK A01 T01780137  RH  077%=      5-min Rain = 0
KMC1 251436Z 03006KT 18/14 A3019 RMK A01 T01800137  RH  076%=      5-min Rain = 0
KMC1 251437Z 02006KT 18/14 A3019 RMK A01 T01810139  RH  076%=      5-min Rain = 0
KMC1 251438Z 02006KT 18/14 A3019 RMK A01 T01820138  RH  075%=      5-min Rain = 0
KMC1 251439Z 03006KT 18/14 A3019 RMK A01 T01820138  RH  075%=      5-min Rain = 0
KMC1 251440Z 03005KT 18/14 A3019 RMK A01 T01820137  RH  075%=      5-min Rain = 0
KMC1 251441Z 03004KT 18/14 A3019 RMK A01 T01820139  RH  076%=      5-min Rain = 0
KMC1 251442Z 03004KT 18/14 A3019 RMK A01 T01830140  RH  076%=      5-min Rain = 0
KMC1 251443Z 02005KT 18/14 A3019 RMK A01 T01840139  RH  075%=      5-min Rain = 0
KMC1 251444Z 03006KT 18/14 A3019 RMK A01 T01840140  RH  075%=      5-min Rain = 0
KMC1 251445Z 04006KT 18/14 A3019 RMK A01 T01840140  RH  076%=      5-min Rain = 0
KMC1 251446Z 03005KT 18/14 A3019 RMK A01 T01840140  RH  075%=      5-min Rain = 0
KMC1 251447Z 03006KT 19/14 A3019 RMK A01 T01850139  RH  075%=      5-min Rain = 0
KMC1 251448Z 03009KT 19/14 A3019 RMK A01 T01850140  RH  075%=      5-min Rain = 0
KMC1 251449Z 03009KT 19/14 A3019 RMK A01 T01850139  RH  074%=      5-min Rain = 0
KMC1 251450Z 02010KT 18/14 A302 RMK A01 T01840137  RH  074%=      5-min Rain = 0
KMC1 251451Z 03010KT 18/14 A302 RMK A01 T01830135  RH  074%=      5-min Rain = 0
KMC1 251452Z 03008KT 18/14 A302 RMK A01 T01820135  RH  074%=      5-min Rain = 0
KMC1 251453Z 02008KT 18/13 A302 RMK A01 T01810134  RH  074%=      5-min Rain = 0
KMC1 251454Z 02008KT 18/13 A302 RMK A01 T01800132  RH  073%=      5-min Rain = 0
KMC1 251455Z 02007KT 18/13 A302 RMK A01 T01790131  RH  073%=      5-min Rain = 0
KMC1 251456Z 03007KT 18/13 A302 RMK A01 T01790132  RH  074%=      5-min Rain = 0
KMC1 251457Z 03006KT 18/13 A302 RMK A01 T01780131  RH  074%=      5-min Rain = 0
KMC1 251458Z 02007KT 18/13 A302 RMK A01 T01780131  RH  074%=      5-min Rain = 0
KMC1 251459Z 02006KT 18/13 A302 RMK A01 T01790132  RH  074%=      5-min Rain = 0
KMC1 251500Z 02007KT 18/13 A302 RMK A01 T01800131  RH  073%=      5-min Rain = 0
KMC1 251501Z 01005KT 18/13 A302 RMK A01 T01790130  RH  073%=      5-min Rain = 0
KMC1 251502Z 02007KT 18/13 A302 RMK A01 T01780131  RH  074%=      5-min Rain = 0
KMC1 251503Z 01005KT 18/13 A302 RMK A01 T01780129  RH  073%=      5-min Rain = 0
KMC1 251504Z 01005KT 18/13 A302 RMK A01 T01780131  RH  074%=      5-min Rain = 0
KMC1 251505Z 01005KT 18/13 A302 RMK A01 T01790133  RH  074%=      5-min Rain = 0
KMC1 251506Z 00006KT 18/13 A302 RMK A01 T01800131  RH  073%=      5-min Rain = 0
KMC1 251507Z 02005KT 18/13 A302 RMK A01 T01800131  RH  073%=      5-min Rain = 0
KMC1 251508Z 01005KT 18/13 A302 RMK A01 T01800131  RH  073%=      5-min Rain = 0
KMC1 251509Z 01004KT 18/13 A302 RMK A01 T01800132  RH  073%=      5-min Rain = 0
KMC1 251510Z 03005KT 18/13 A302 RMK A01 T01810133  RH  073%=      5-min Rain = 0
KMC1 251511Z 02004KT 18/13 A302 RMK A01 T01820131  RH  072%=      5-min Rain = 0
KMC1 251512Z 04005KT 18/13 A302 RMK A01 T01830134  RH  073%=      5-min Rain = 0
KMC1 251513Z 04002KT 19/14 A302 RMK A01 T01850135  RH  073%=      5-min Rain = 0
KMC1 251514Z 01006KT 19/14 A302 RMK A01 T01870136  RH  072%=      5-min Rain = 0
KMC1 251515Z 02005KT 19/13 A302 RMK A01 T01880133  RH  071%=      5-min Rain = 0
KMC1 251516Z 03005KT 19/14 A302 RMK A01 T01870135  RH  072%=      5-min Rain = 0
KMC1 251517Z 05005KT 19/14 A302 RMK A01 T01880137  RH  072%=      5-min Rain = 0
KMC1 251518Z 04005KT 19/13 A302 RMK A01 T01900134  RH  070%=      5-min Rain = 0
KMC1 251519Z 04007KT 19/13 A302 RMK A01 T01890134  RH  070%=      5-min Rain = 0
KMC1 251520Z 04004KT 19/14 A302 RMK A01 T01880136  RH  072%=      5-min Rain = 0
KMC1 251521Z 03004KT 19/14 A302 RMK A01 T01890135  RH  071%=      5-min Rain = 0
KMC1 251522Z 04007KT 19/14 A302 RMK A01 T01890136  RH  071%=      5-min Rain = 0
KMC1 251523Z 02006KT 19/14 A302 RMK A01 T01900136  RH  071%=      5-min Rain = 0
KMC1 251524Z 03006KT 19/14 A302 RMK A01 T01900135  RH  070%=      5-min Rain = 0
KMC1 251525Z 03006KT 19/14 A302 RMK A01 T01900136  RH  071%=      5-min Rain = 0
KMC1 251526Z 03005KT 19/14 A302 RMK A01 T01910139  RH  072%=      5-min Rain = 0
KMC1 251527Z 05004KT 19/14 A302 RMK A01 T01920138  RH  071%=      5-min Rain = 0
KMC1 251528Z 03004KT 19/14 A302 RMK A01 T01930142  RH  072%=      5-min Rain = 0
KMC1 251529Z 04004KT 20/14 A302 RMK A01 T01960140  RH  070%=      5-min Rain = 0
KMC1 251530Z 03005KT 20/14 A302 RMK A01 T01970139  RH  069%=      5-min Rain = 0
KMC1 251531Z 04009KT 20/14 A302 RMK A01 T01960138  RH  069%=      5-min Rain = 0
KMC1 251532Z 04007KT 20/14 A3021 RMK A01 T01950135  RH  068%=      5-min Rain = 0
KMC1 251533Z 05005KT 19/14 A3021 RMK A01 T01930135  RH  069%=      5-min Rain = 0
KMC1 251534Z 03005KT 19/14 A3021 RMK A01 T01930136  RH  069%=      5-min Rain = 0
KMC1 251535Z 03008KT 19/14 A3021 RMK A01 T01930137  RH  070%=      5-min Rain = 0
KMC1 251536Z 05008KT 19/14 A3021 RMK A01 T01930136  RH  069%=      5-min Rain = 0
KMC1 251537Z 05007KT 19/14 A3021 RMK A01 T01920137  RH  070%=      5-min Rain = 0
KMC1 251538Z 05006KT 19/14 A3021 RMK A01 T01920136  RH  070%=      5-min Rain = 0
KMC1 251539Z 05008KT 19/14 A3021 RMK A01 T01920136  RH  070%=      5-min Rain = 0
KMC1 251540Z 04007KT 19/14 A3021 RMK A01 T01920136  RH  070%=      5-min Rain = 0
KMC1 251541Z 04006KT 19/13 A3021 RMK A01 T01920134  RH  069%=      5-min Rain = 0
KMC1 251542Z 05004KT 19/13 A3021 RMK A01 T01910133  RH  069%=      5-min Rain = 0
KMC1 251543Z 04005KT 19/14 A3021 RMK A01 T01900135  RH  071%=      5-min Rain = 0
KMC1 251544Z 04006KT 19/13 A3021 RMK A01 T01900134  RH  070%=      5-min Rain = 0
KMC1 251545Z 03006KT 19/13 A3021 RMK A01 T01890133  RH  070%=      5-min Rain = 0
KMC1 251546Z 04005KT 19/13 A3021 RMK A01 T01890134  RH  070%=      5-min Rain = 0
KMC1 251547Z 04006KT 19/13 A3021 RMK A01 T01900134  RH  070%=      5-min Rain = 0
KMC1 251548Z 05005KT 19/13 A3021 RMK A01 T01900132  RH  069%=      5-min Rain = 0
KMC1 251549Z 05006KT 19/13 A3021 RMK A01 T01890134  RH  070%=      5-min Rain = 0
KMC1 251550Z 06004KT 19/14 A3021 RMK A01 T01900137  RH  071%=      5-min Rain = 0
KMC1 251551Z 05004KT 19/14 A3021 RMK A01 T01930136  RH  069%=      5-min Rain = 0
KMC1 251552Z 03004KT 19/14 A3021 RMK A01 T01940135  RH  069%=      5-min Rain = 0
KMC1 251553Z 02007KT 20/14 A3021 RMK A01 T01950136  RH  069%=      5-min Rain = 0
KMC1 251554Z 03008KT 20/13 A3021 RMK A01 T01950133  RH  067%=      5-min Rain = 0
KMC1 251555Z 04006KT 19/13 A3021 RMK A01 T01940134  RH  068%=      5-min Rain = 0
KMC1 251556Z 05006KT 19/13 A3021 RMK A01 T01940133  RH  068%=      5-min Rain = 0
KMC1 251557Z 03003KT 20/14 A3021 RMK A01 T01960136  RH  068%=      5-min Rain = 0
KMC1 251558Z 03004KT 20/14 A3021 RMK A01 T01980136  RH  067%=      5-min Rain = 0
KMC1 251559Z 02006KT 20/13 A3021 RMK A01 T01980134  RH  066%=      5-min Rain = 0
KMC1 251600Z 02007KT 20/13 A3021 RMK A01 T01980134  RH  066%=      5-min Rain = 0
KMC1 251601Z 02008KT 20/13 A3021 RMK A01 T01970134  RH  067%=      5-min Rain = 0
KMC1 251602Z 35006KT 20/13 A3021 RMK A01 T01960132  RH  066%=      5-min Rain = 0
KMC1 251603Z 01006KT 20/14 A3021 RMK A01 T01960136  RH  068%=      5-min Rain = 0
KMC1 251604Z 02007KT 20/13 A3021 RMK A01 T01980133  RH  066%=      5-min Rain = 0
KMC1 251605Z 02006KT 20/13 A3021 RMK A01 T01980133  RH  066%=      5-min Rain = 0
KMC1 251606Z 03006KT 20/13 A3021 RMK A01 T01990133  RH  066%=      5-min Rain = 0
KMC1 251607Z 05006KT 20/13 A3021 RMK A01 T01990131  RH  065%=      5-min Rain = 0
KMC1 251608Z 04004KT 20/14 A3021 RMK A01 T02000135  RH  066%=      5-min Rain = 0
KMC1 251609Z 04009KT 20/13 A3021 RMK A01 T02010132  RH  064%=      5-min Rain = 0
KMC1 251610Z 04006KT 20/13 A3021 RMK A01 T02020132  RH  064%=      5-min Rain = 0
KMC1 251611Z 03007KT 20/13 A3021 RMK A01 T02030133  RH  064%=      5-min Rain = 0
KMC1 251612Z 03009KT 20/13 A3021 RMK A01 T02030131  RH  063%=      5-min Rain = 0
KMC1 251613Z 03010KT 20/13 A3021 RMK A01 T02030132  RH  064%=      5-min Rain = 0
KMC1 251614Z 03008KT 20/13 A3021 RMK A01 T02040132  RH  063%=      5-min Rain = 0
KMC1 251615Z 02009KT 20/13 A3021 RMK A01 T02040131  RH  063%=      5-min Rain = 0
KMC1 251616Z 01008KT 20/13 A3021 RMK A01 T02040132  RH  063%=      5-min Rain = 0
KMC1 251617Z 01010KT 20/13 A3021 RMK A01 T02040131  RH  063%=      5-min Rain = 0
KMC1 251618Z 03010KT 20/13 A3021 RMK A01 T02030131  RH  063%=      5-min Rain = 0
KMC1 251619Z 04009KT 20/13 A3021 RMK A01 T02020131  RH  063%=      5-min Rain = 0
KMC1 251620Z 04007KT 20/13 A3021 RMK A01 T02030133  RH  064%=      5-min Rain = 0
KMC1 251621Z 01008KT 20/13 A3021 RMK A01 T02040133  RH  064%=      5-min Rain = 0
KMC1 251622Z 01008KT 21/13 A3021 RMK A01 T02050132  RH  063%=      5-min Rain = 0
KMC1 251623Z 01005KT 21/13 A3021 RMK A01 T02060134  RH  063%=      5-min Rain = 0
KMC1 251624Z 00007KT 21/14 A3021 RMK A01 T02080135  RH  063%=      5-min Rain = 0
KMC1 251625Z 01008KT 21/13 A3021 RMK A01 T02080130  RH  061%=      5-min Rain = 0
KMC1 251626Z 02006KT 21/13 A3021 RMK A01 T02070130  RH  061%=      5-min Rain = 0
KMC1 251627Z 02008KT 21/13 A3021 RMK A01 T02060132  RH  063%=      5-min Rain = 0
KMC1 251628Z 02009KT 21/13 A3021 RMK A01 T02060128  RH  061%=      5-min Rain = 0
KMC1 251629Z 02007KT 20/13 A3021 RMK A01 T02040129  RH  062%=      5-min Rain = 0
KMC1 251630Z 03008KT 20/13 A3021 RMK A01 T02040131  RH  063%=      5-min Rain = 0
KMC1 251631Z 03008KT 21/13 A3021 RMK A01 T02050129  RH  062%=      5-min Rain = 0
KMC1 251632Z 04008KT 20/13 A3021 RMK A01 T02040130  RH  062%=      5-min Rain = 0
KMC1 251633Z 01007KT 21/13 A3021 RMK A01 T02050133  RH  063%=      5-min Rain = 0
KMC1 251634Z 01008KT 21/13 A3021 RMK A01 T02060131  RH  062%=      5-min Rain = 0
KMC1 251635Z 01007KT 21/13 A3021 RMK A01 T02070133  RH  063%=      5-min Rain = 0
KMC1 251636Z 01007KT 21/13 A3021 RMK A01 T02080132  RH  062%=      5-min Rain = 0
KMC1 251637Z 00006KT 21/13 A3021 RMK A01 T02070130  RH  061%=      5-min Rain = 0
KMC1 251638Z 02007KT 21/13 A3021 RMK A01 T02050130  RH  062%=      5-min Rain = 0
KMC1 251639Z 02010KT 21/13 A3021 RMK A01 T02050132  RH  063%=      5-min Rain = 0
KMC1 251640Z 01009KT 21/13 A3021 RMK A01 T02060130  RH  062%=      5-min Rain = 0
KMC1 251641Z 01007KT 21/13 A3021 RMK A01 T02060129  RH  062%=      5-min Rain = 0
KMC1 251642Z 02007KT 21/13 A3021 RMK A01 T02050130  RH  062%=      5-min Rain = 0
KMC1 251643Z 03010KT 21/13 A3021 RMK A01 T02060132  RH  063%=      5-min Rain = 0
KMC1 251644Z 03009KT 21/13 A3021 RMK A01 T02070132  RH  062%=      5-min Rain = 0
KMC1 251645Z 03007KT 21/13 A3021 RMK A01 T02090133  RH  062%=      5-min Rain = 0
KMC1 251646Z 01010KT 21/13 A3021 RMK A01 T02090133  RH  062%=      5-min Rain = 0
KMC1 251647Z 02008KT 21/13 A3021 RMK A01 T02090131  RH  061%=      5-min Rain = 0
KMC1 251648Z 02007KT 21/13 A3021 RMK A01 T02090133  RH  062%=      5-min Rain = 0
KMC1 251649Z 02006KT 21/13 A3021 RMK A01 T02090132  RH  061%=      5-min Rain = 0
KMC1 251650Z 05005KT 21/14 A3021 RMK A01 T02100136  RH  062%=      5-min Rain = 0
KMC1 251651Z 05008KT 21/13 A3021 RMK A01 T02120133  RH  061%=      5-min Rain = 0
KMC1 251652Z 04009KT 21/13 A3021 RMK A01 T02130134  RH  061%=      5-min Rain = 0
KMC1 251653Z 03010KT 21/13 A3021 RMK A01 T02130133  RH  060%=      5-min Rain = 0
KMC1 251654Z 01007KT 21/14 A3022 RMK A01 T02130135  RH  061%=      5-min Rain = 0
KMC1 251655Z 02008KT 21/14 A3021 RMK A01 T02140135  RH  061%=      5-min Rain = 0
KMC1 251656Z 03009KT 22/14 A3021 RMK A01 T02150135  RH  060%=      5-min Rain = 0
KMC1 251657Z 05008KT 22/13 A3021 RMK A01 T02150134  RH  060%=      5-min Rain = 0
KMC1 251658Z 05007KT 22/13 A3021 RMK A01 T02150133  RH  059%=      5-min Rain = 0
KMC1 251659Z 05006KT 22/13 A3021 RMK A01 T02150133  RH  060%=      5-min Rain = 0
KMC1 251700Z 03007KT 21/13 A3021 RMK A01 T02140132  RH  060%=      5-min Rain = 0
KMC1 251701Z 01009KT 21/13 A3022 RMK A01 T02130134  RH  061%=      5-min Rain = 0
KMC1 251702Z 01007KT 21/13 A3022 RMK A01 T02110133  RH  061%=      5-min Rain = 0
KMC1 251703Z 03009KT 21/13 A3022 RMK A01 T02110134  RH  062%=      5-min Rain = 0
KMC1 251704Z 03009KT 21/13 A3022 RMK A01 T02120131  RH  060%=      5-min Rain = 0
KMC1 251705Z 02008KT 21/13 A3022 RMK A01 T02120131  RH  060%=      5-min Rain = 0
KMC1 251706Z 02009KT 21/13 A3021 RMK A01 T02110134  RH  061%=      5-min Rain = 0
KMC1 251707Z 02009KT 21/14 A3022 RMK A01 T02140135  RH  061%=      5-min Rain = 0
KMC1 251708Z 01009KT 22/13 A3022 RMK A01 T02150132  RH  059%=      5-min Rain = 0
KMC1 251709Z 02007KT 21/13 A3022 RMK A01 T02140133  RH  060%=      5-min Rain = 0
KMC1 251710Z 03006KT 21/13 A3022 RMK A01 T02140132  RH  060%=      5-min Rain = 0
KMC1 251711Z 01009KT 21/13 A3022 RMK A01 T02130133  RH  060%=      5-min Rain = 0
KMC1 251712Z 01008KT 21/13 A3022 RMK A01 T02130132  RH  060%=      5-min Rain = 0
KMC1 251713Z 01007KT 21/14 A3022 RMK A01 T02140136  RH  061%=      5-min Rain = 0
KMC1 251714Z 05007KT 22/14 A3022 RMK A01 T02160136  RH  060%=      5-min Rain = 0
KMC1 251715Z 04005KT 22/13 A3022 RMK A01 T02170133  RH  059%=      5-min Rain = 0
KMC1 251716Z 04007KT 22/13 A3022 RMK A01 T02160134  RH  059%=      5-min Rain = 0
KMC1 251717Z 03007G15KT 22/14 A3022 RMK A01 T02160135  RH  060%=      5-min Rain = 0
KMC1 251718Z 01011KT 22/13 A3022 RMK A01 T02160133  RH  059%=      5-min Rain = 0
KMC1 251719Z 00007KT 22/13 A3022 RMK A01 T02160132  RH  059%=      5-min Rain = 0
KMC1 251720Z 04008KT 22/14 A3022 RMK A01 T02160136  RH  060%=      5-min Rain = 0
KMC1 251721Z 04007KT 22/14 A3022 RMK A01 T02180137  RH  060%=      5-min Rain = 0
KMC1 251722Z 03007KT 22/13 A3022 RMK A01 T02200134  RH  058%=      5-min Rain = 0
KMC1 251723Z 03005KT 22/14 A3022 RMK A01 T02190139  RH  060%=      5-min Rain = 0
KMC1 251724Z 04007KT 22/14 A3022 RMK A01 T02220139  RH  059%=      5-min Rain = 0
KMC1 251725Z 03009KT 22/14 A3022 RMK A01 T02230136  RH  058%=      5-min Rain = 0
KMC1 251726Z 01008KT 22/14 A3022 RMK A01 T02220135  RH  058%=      5-min Rain = 0
KMC1 251727Z 00009KT 22/14 A3022 RMK A01 T02210136  RH  059%=      5-min Rain = 0
KMC1 251728Z 00010KT 22/14 A3022 RMK A01 T02200135  RH  059%=      5-min Rain = 0
KMC1 251729Z 02009KT 22/13 A3022 RMK A01 T02180132  RH  058%=      5-min Rain = 0
KMC1 251730Z 05008KT 22/13 A3022 RMK A01 T02170132  RH  059%=      5-min Rain = 0
KMC1 251731Z 04008KT 22/13 A3022 RMK A01 T02160132  RH  059%=      5-min Rain = 0
KMC1 251732Z 04007KT 22/13 A3022 RMK A01 T02160133  RH  059%=      5-min Rain = 0
KMC1 251733Z 03006KT 22/13 A3022 RMK A01 T02160132  RH  059%=      5-min Rain = 0
KMC1 251734Z 02006KT 22/13 A3022 RMK A01 T02150134  RH  060%=      5-min Rain = 0
KMC1 251735Z 01005KT 22/14 A3022 RMK A01 T02170137  RH  060%=      5-min Rain = 0
KMC1 251736Z 03008G13KT 22/14 A3021 RMK A01 T02190135  RH  059%=      5-min Rain = 0
KMC1 251737Z 03013KT 22/14 A3021 RMK A01 T02200135  RH  059%=      5-min Rain = 0
KMC1 251738Z 03011KT 22/13 A3021 RMK A01 T02200133  RH  058%=      5-min Rain = 0
KMC1 251739Z 03008KT 22/14 A3021 RMK A01 T02200136  RH  059%=      5-min Rain = 0
KMC1 251740Z 03009KT 22/13 A3021 RMK A01 T02220134  RH  058%=      5-min Rain = 0
KMC1 251741Z 02007KT 22/13 A3021 RMK A01 T02210133  RH  057%=      5-min Rain = 0
KMC1 251742Z 02009KT 22/14 A3021 RMK A01 T02210136  RH  059%=      5-min Rain = 0
KMC1 251743Z 00008KT 22/13 A3021 RMK A01 T02210133  RH  057%=      5-min Rain = 0
KMC1 251744Z 01008KT 22/14 A3021 RMK A01 T02210138  RH  059%=      5-min Rain = 0
KMC1 251745Z 01011KT 22/14 A3021 RMK A01 T02230136  RH  058%=      5-min Rain = 0
KMC1 251746Z 36009KT 22/13 A3021 RMK A01 T02230134  RH  057%=      5-min Rain = 0
KMC1 251747Z 01007KT 22/13 A3021 RMK A01 T02220133  RH  057%=      5-min Rain = 0
KMC1 251748Z 02005KT 22/14 A3021 RMK A01 T02200135  RH  058%=      5-min Rain = 0
KMC1 251749Z 02010KT 22/13 A3021 RMK A01 T02210133  RH  057%=      5-min Rain = 0
KMC1 251750Z 02010KT 22/14 A3021 RMK A01 T02220138  RH  059%=      5-min Rain = 0
KMC1 251751Z 02010KT 22/13 A3021 RMK A01 T02240133  RH  056%=      5-min Rain = 0
KMC1 251752Z 03010KT 22/13 A3021 RMK A01 T02220134  RH  057%=      5-min Rain = 0
KMC1 251753Z 02007KT 22/13 A3021 RMK A01 T02220134  RH  057%=      5-min Rain = 0
KMC1 251754Z 00007G12KT 22/14 A3021 RMK A01 T02230136  RH  058%=      5-min Rain = 0
KMC1 251755Z 00013KT 22/13 A3021 RMK A01 T02230133  RH  057%=      5-min Rain = 0
KMC1 251756Z 01011KT 22/13 A3021 RMK A01 T02230131  RH  056%=      5-min Rain = 0
KMC1 251757Z 01006KT 22/13 A3021 RMK A01 T02210132  RH  057%=      5-min Rain = 0
KMC1 251758Z 01009KT 22/13 A3021 RMK A01 T02220131  RH  056%=      5-min Rain = 0
KMC1 251759Z 02008KT 22/13 A3021 RMK A01 T02220130  RH  056%=      5-min Rain = 0
KMC1 251800Z 00005KT 22/13 A3021 RMK A01 T02210132  RH  057%=      5-min Rain = 0
KMC1 251801Z 03006KT 22/14 A3021 RMK A01 T02220137  RH  059%=      5-min Rain = 0
KMC1 251802Z 06007KT 23/14 A3021 RMK A01 T02260136  RH  057%=      5-min Rain = 0
KMC1 251803Z 05006KT 23/13 A3021 RMK A01 T02280134  RH  055%=      5-min Rain = 0
KMC1 251804Z 03008KT 23/14 A3021 RMK A01 T02300137  RH  056%=      5-min Rain = 0
KMC1 251805Z 03010KT 23/14 A3021 RMK A01 T02310137  RH  055%=      5-min Rain = 0
KMC1 251806Z 03009KT 23/13 A3021 RMK A01 T02310134  RH  054%=      5-min Rain = 0
KMC1 251807Z 04007KT 23/14 A3021 RMK A01 T02300135  RH  055%=      5-min Rain = 0
KMC1 251808Z 04009KT 23/14 A3021 RMK A01 T02300135  RH  055%=      5-min Rain = 0
KMC1 251809Z 03009KT 23/13 A3021 RMK A01 T02300134  RH  055%=      5-min Rain = 0
KMC1 251810Z 03007KT 23/13 A3021 RMK A01 T02290132  RH  054%=      5-min Rain = 0
KMC1 251811Z 00010KT 23/13 A3021 RMK A01 T02280133  RH  055%=      5-min Rain = 0
KMC1 251812Z 01010KT 23/13 A3021 RMK A01 T02280134  RH  055%=      5-min Rain = 0
KMC1 251813Z 02008KT 23/14 A3021 RMK A01 T02310137  RH  055%=      5-min Rain = 0
KMC1 251814Z 03010KT 23/14 A3021 RMK A01 T02340135  RH  054%=      5-min Rain = 0
KMC1 251815Z 02009KT 23/13 A3021 RMK A01 T02330132  RH  053%=      5-min Rain = 0
KMC1 251816Z 01009KT 23/13 A3021 RMK A01 T02320133  RH  054%=      5-min Rain = 0
KMC1 251817Z 00011KT 23/13 A3021 RMK A01 T02310134  RH  054%=      5-min Rain = 0
KMC1 251818Z 03008KT 23/14 A3021 RMK A01 T02330136  RH  055%=      5-min Rain = 0
KMC1 251819Z 02006KT 24/14 A3021 RMK A01 T02350136  RH  054%=      5-min Rain = 0
KMC1 251820Z 02008KT 24/13 A3021 RMK A01 T02350132  RH  052%=      5-min Rain = 0
KMC1 251821Z 01005KT 23/13 A3021 RMK A01 T02330128  RH  052%=      5-min Rain = 0
KMC1 251822Z 01009KT 23/13 A3021 RMK A01 T02300133  RH  054%=      5-min Rain = 0
KMC1 251823Z 02013KT 23/13 A3021 RMK A01 T02310132  RH  054%=      5-min Rain = 0
KMC1 251824Z 03013KT 23/13 A3021 RMK A01 T02320130  RH  053%=      5-min Rain = 0
KMC1 251825Z 03010KT 23/13 A3021 RMK A01 T02310132  RH  054%=      5-min Rain = 0
KMC1 251826Z 03009KT 23/13 A3021 RMK A01 T02320131  RH  053%=      5-min Rain = 0
KMC1 251827Z 04009KT 23/13 A3021 RMK A01 T02310130  RH  053%=      5-min Rain = 0
KMC1 251828Z 04007KT 23/13 A302 RMK A01 T02310131  RH  053%=      5-min Rain = 0
KMC1 251829Z 06009G14KT 23/13 A302 RMK A01 T02320130  RH  053%=      5-min Rain = 0
KMC1 251830Z 05011KT 23/13 A302 RMK A01 T02330130  RH  052%=      5-min Rain = 0
KMC1 251831Z 04009KT 23/13 A302 RMK A01 T02340132  RH  053%=      5-min Rain = 0
KMC1 251832Z 05009KT 24/13 A302 RMK A01 T02350128  RH  051%=      5-min Rain = 0
KMC1 251833Z 04011KT 23/13 A302 RMK A01 T02330131  RH  052%=      5-min Rain = 0
KMC1 251834Z 04011KT 23/13 A302 RMK A01 T02330127  RH  051%=      5-min Rain = 0
KMC1 251835Z 04010KT 23/13 A302 RMK A01 T02330129  RH  052%=      5-min Rain = 0
KMC1 251836Z 03012KT 23/13 A302 RMK A01 T02330129  RH  052%=      5-min Rain = 0
KMC1 251837Z 02009KT 23/13 A302 RMK A01 T02330127  RH  051%=      5-min Rain = 0
KMC1 251838Z 02010KT 23/13 A302 RMK A01 T02330128  RH  052%=      5-min Rain = 0
KMC1 251839Z 01008KT 23/13 A302 RMK A01 T02330127  RH  051%=      5-min Rain = 0
KMC1 251840Z 04009KT 23/13 A302 RMK A01 T02340131  RH  052%=      5-min Rain = 0
KMC1 251841Z 05012KT 24/13 A302 RMK A01 T02350127  RH  051%=      5-min Rain = 0
KMC1 251842Z 06007KT 23/13 A302 RMK A01 T02340126  RH  051%=      5-min Rain = 0
KMC1 251843Z 05008KT 24/13 A302 RMK A01 T02350128  RH  051%=      5-min Rain = 0
KMC1 251844Z 03006KT 24/13 A302 RMK A01 T02350129  RH  051%=      5-min Rain = 0
KMC1 251845Z 02012KT 24/13 A302 RMK A01 T02360127  RH  051%=      5-min Rain = 0
KMC1 251846Z 02010KT 24/13 A302 RMK A01 T02350125  RH  050%=      5-min Rain = 0
KMC1 251847Z 01010G15KT 23/13 A302 RMK A01 T02340126  RH  051%=      5-min Rain = 0
KMC1 251848Z 02010G16KT 23/13 A302 RMK A01 T02320125  RH  051%=      5-min Rain = 0
KMC1 251849Z 04013KT 23/12 A302 RMK A01 T02310124  RH  051%=      5-min Rain = 0
KMC1 251850Z 04011KT 23/12 A302 RMK A01 T02300122  RH  050%=      5-min Rain = 0
KMC1 251851Z 04011KT 23/13 A302 RMK A01 T02320127  RH  052%=      5-min Rain = 0
KMC1 251852Z 03012KT 24/13 A302 RMK A01 T02350125  RH  050%=      5-min Rain = 0
KMC1 251853Z 03008KT 23/12 A302 RMK A01 T02340123  RH  050%=      5-min Rain = 0
KMC1 251854Z 02012KT 23/12 A302 RMK A01 T02340124  RH  050%=      5-min Rain = 0
KMC1 251855Z 03012KT 23/13 A302 RMK A01 T02340125  RH  050%=      5-min Rain = 0
KMC1 251856Z 04008KT 23/13 A302 RMK A01 T02340126  RH  051%=      5-min Rain = 0
KMC1 251857Z 04009KT 24/13 A302 RMK A01 T02350125  RH  050%=      5-min Rain = 0
KMC1 251858Z 02013KT 24/13 A302 RMK A01 T02370125  RH  049%=      5-min Rain = 0
KMC1 251859Z 02012KT 24/12 A302 RMK A01 T02370120  RH  048%=      5-min Rain = 0
KMC1 251900Z 03012KT 24/12 A302 RMK A01 T02360120  RH  048%=      5-min Rain = 0
KMC1 251901Z 04011KT 24/12 A302 RMK A01 T02350117  RH  048%=      5-min Rain = 0
KMC1 251902Z 02010KT 23/12 A302 RMK A01 T02340118  RH  048%=      5-min Rain = 0
KMC1 251903Z 03008KT 23/12 A302 RMK A01 T02340120  RH  049%=      5-min Rain = 0
KMC1 251904Z 04009KT 23/12 A302 RMK A01 T02340122  RH  049%=      5-min Rain = 0
KMC1 251905Z 04009KT 24/12 A302 RMK A01 T02350118  RH  048%=      5-min Rain = 0
KMC1 251906Z 03007KT 23/12 A302 RMK A01 T02340116  RH  048%=      5-min Rain = 0
KMC1 251907Z 03005KT 23/12 A302 RMK A01 T02310116  RH  048%=      5-min Rain = 0
KMC1 251908Z 04009KT 23/12 A302 RMK A01 T02310124  RH  051%=      5-min Rain = 0
KMC1 251909Z 05010KT 24/12 A302 RMK A01 T02360123  RH  049%=      5-min Rain = 0
KMC1 251910Z 05010KT 24/12 A302 RMK A01 T02370121  RH  048%=      5-min Rain = 0
KMC1 251911Z 05010KT 24/12 A302 RMK A01 T02370123  RH  049%=      5-min Rain = 0
KMC1 251912Z 06008G14KT 24/12 A302 RMK A01 T02380122  RH  048%=      5-min Rain = 0
KMC1 251913Z 03005KT 24/13 A3019 RMK A01 T02380126  RH  050%=      5-min Rain = 0
KMC1 251914Z 01011KT 24/12 A302 RMK A01 T02400124  RH  048%=      5-min Rain = 0
KMC1 251915Z 02010KT 24/12 A3019 RMK A01 T02380118  RH  047%=      5-min Rain = 0
KMC1 251916Z 02008KT 24/12 A3019 RMK A01 T02350121  RH  049%=      5-min Rain = 0
KMC1 251917Z 02011KT 24/12 A3019 RMK A01 T02370122  RH  048%=      5-min Rain = 0
KMC1 251918Z 02009KT 24/12 A3019 RMK A01 T02380117  RH  047%=      5-min Rain = 0
KMC1 251919Z 04009KT 24/12 A3019 RMK A01 T02380120  RH  048%=      5-min Rain = 0
KMC1 251920Z 03009KT 24/12 A3019 RMK A01 T02390120  RH  047%=      5-min Rain = 0
KMC1 251921Z 02008KT 24/12 A3019 RMK A01 T02400120  RH  047%=      5-min Rain = 0
KMC1 251922Z 04010KT 24/12 A3019 RMK A01 T02400116  RH  046%=      5-min Rain = 0
KMC1 251923Z 05007KT 24/11 A3019 RMK A01 T02380114  RH  046%=      5-min Rain = 0
KMC1 251924Z 05007KT 24/12 A3019 RMK A01 T02380117  RH  046%=      5-min Rain = 0
KMC1 251925Z 06009KT 24/12 A3019 RMK A01 T02390119  RH  047%=      5-min Rain = 0
KMC1 251926Z 05010KT 24/12 A3019 RMK A01 T02410121  RH  047%=      5-min Rain = 0
KMC1 251927Z 06008KT 24/12 A3019 RMK A01 T02420118  RH  046%=      5-min Rain = 0
KMC1 251928Z 04010KT 24/12 A3019 RMK A01 T02430120  RH  046%=      5-min Rain = 0
KMC1 251929Z 03011KT 24/12 A3019 RMK A01 T02430121  RH  046%=      5-min Rain = 0
KMC1 251930Z 03010KT 24/12 A3019 RMK A01 T02430118  RH  045%=      5-min Rain = 0
KMC1 251931Z 04009KT 24/12 A3019 RMK A01 T02420117  RH  045%=      5-min Rain = 0
KMC1 251932Z 03009KT 24/12 A3019 RMK A01 T02410115  RH  045%=      5-min Rain = 0
KMC1 251933Z 02010KT 24/12 A3019 RMK A01 T02410116  RH  045%=      5-min Rain = 0
KMC1 251934Z 04013KT 24/12 A3019 RMK A01 T02420119  RH  046%=      5-min Rain = 0
KMC1 251935Z 02009KT 24/11 A3019 RMK A01 T02410112  RH  044%=      5-min Rain = 0
KMC1 251936Z 02006KT 24/12 A3019 RMK A01 T02390117  RH  047%=      5-min Rain = 0
KMC1 251937Z 05010KT 24/12 A3019 RMK A01 T02390121  RH  047%=      5-min Rain = 0
KMC1 251938Z 05010KT 24/12 A3019 RMK A01 T02420115  RH  045%=      5-min Rain = 0
KMC1 251939Z 06009KT 24/11 A3019 RMK A01 T02440112  RH  044%=      5-min Rain = 0
KMC1 251940Z 05011G16KT 24/12 A3019 RMK A01 T02430117  RH  045%=      5-min Rain = 0
KMC1 251941Z 06012G17KT 24/12 A3019 RMK A01 T02440116  RH  045%=      5-min Rain = 0
KMC1 251942Z 05010KT 25/11 A3019 RMK A01 T02450114  RH  044%=      5-min Rain = 0
KMC1 251943Z 05011KT 24/12 A3019 RMK A01 T02440115  RH  044%=      5-min Rain = 0
KMC1 251944Z 05009KT 24/12 A3019 RMK A01 T02440116  RH  045%=      5-min Rain = 0
KMC1 251945Z 05009KT 25/12 A3019 RMK A01 T02460115  RH  044%=      5-min Rain = 0
KMC1 251946Z 06008G16KT 25/11 A3019 RMK A01 T02460111  RH  043%=      5-min Rain = 0
KMC1 251947Z 03011KT 25/11 A3019 RMK A01 T02450112  RH  043%=      5-min Rain = 0
KMC1 251948Z 04012KT 24/11 A3019 RMK A01 T02440112  RH  043%=      5-min Rain = 0
KMC1 251949Z 03009G14KT 25/11 A3019 RMK A01 T02450110  RH  043%=      5-min Rain = 0
KMC1 251950Z 05011KT 25/11 A3019 RMK A01 T02450110  RH  043%=      5-min Rain = 0
KMC1 251951Z 05009KT 25/11 A3019 RMK A01 T02450111  RH  043%=      5-min Rain = 0
KMC1 251952Z 04010KT 25/11 A3019 RMK A01 T02450114  RH  044%=      5-min Rain = 0
KMC1 251953Z 06009G14KT 25/12 A3019 RMK A01 T02460120  RH  045%=      5-min Rain = 0
KMC1 251954Z 05010KT 25/12 A3019 RMK A01 T02480115  RH  043%=      5-min Rain = 0
KMC1 251955Z 04011KT 25/11 A3019 RMK A01 T02480112  RH  042%=      5-min Rain = 0
KMC1 251956Z 04010KT 25/11 A3019 RMK A01 T02470111  RH  042%=      5-min Rain = 0
KMC1 251957Z 03009KT 25/11 A3019 RMK A01 T02460110  RH  042%=      5-min Rain = 0
KMC1 251958Z 04008KT 25/11 A3019 RMK A01 T02450108  RH  042%=      5-min Rain = 0
KMC1 251959Z 02012G17KT 24/11 A3019 RMK A01 T02440112  RH  044%=      5-min Rain = 0
KMC1 252000Z 03014KT 24/11 A3019 RMK A01 T02440108  RH  042%=      5-min Rain = 0
KMC1 252001Z 03008KT 24/11 A3019 RMK A01 T02430107  RH  042%=      5-min Rain = 0
KMC1 252002Z 03007KT 24/11 A3019 RMK A01 T02420108  RH  043%=      5-min Rain = 0
KMC1 252003Z 03010KT 24/11 A3019 RMK A01 T02430108  RH  043%=      5-min Rain = 0
KMC1 252004Z 04011KT 24/11 A3018 RMK A01 T02440107  RH  042%=      5-min Rain = 0
KMC1 252005Z 02009KT 24/11 A3019 RMK A01 T02440110  RH  043%=      5-min Rain = 0
KMC1 252006Z 02012KT 25/11 A3018 RMK A01 T02460107  RH  042%=      5-min Rain = 0
KMC1 252007Z 03013KT 25/10 A3018 RMK A01 T02460103  RH  040%=      5-min Rain = 0
KMC1 252008Z 03011KT 24/10 A3019 RMK A01 T02440099  RH  040%=      5-min Rain = 0
KMC1 252009Z 03009KT 24/11 A3019 RMK A01 T02440105  RH  041%=      5-min Rain = 0
KMC1 252010Z 03009KT 25/11 A3018 RMK A01 T02470107  RH  041%=      5-min Rain = 0
KMC1 252011Z 02010KT 25/10 A3018 RMK A01 T02480099  RH  039%=      5-min Rain = 0
KMC1 252012Z 04008G13KT 25/10 A3018 RMK A01 T02470104  RH  041%=      5-min Rain = 0
KMC1 252013Z 04012KT 25/10 A3018 RMK A01 T02470101  RH  040%=      5-min Rain = 0
KMC1 252014Z 04009KT 25/10 A3018 RMK A01 T02450096  RH  039%=      5-min Rain = 0
KMC1 252015Z 04009KT 24/10 A3018 RMK A01 T02430097  RH  040%=      5-min Rain = 0
KMC1 252016Z 03009KT 24/10 A3018 RMK A01 T02420102  RH  041%=      5-min Rain = 0
KMC1 252017Z 07007KT 25/11 A3018 RMK A01 T02450108  RH  042%=      5-min Rain = 0
KMC1 252018Z 06008KT 25/11 A3018 RMK A01 T02490110  RH  042%=      5-min Rain = 0
KMC1 252019Z 06007KT 25/11 A3018 RMK A01 T02500108  RH  041%=      5-min Rain = 0
KMC1 252020Z 07005G10KT 25/11 A3018 RMK A01 T02520108  RH  041%=      5-min Rain = 0
KMC1 252021Z 05011KT 25/11 A3018 RMK A01 T02530111  RH  041%=      5-min Rain = 0
KMC1 252022Z 04009KT 25/11 A3018 RMK A01 T02520105  RH  040%=      5-min Rain = 0
KMC1 252023Z 03008KT 25/11 A3018 RMK A01 T02500110  RH  041%=      5-min Rain = 0
KMC1 252024Z 04010KT 25/11 A3018 RMK A01 T02500105  RH  040%=      5-min Rain = 0
KMC1 252025Z 05012KT 25/10 A3018 RMK A01 T02490102  RH  039%=      5-min Rain = 0
KMC1 252026Z 05009KT 25/10 A3018 RMK A01 T02490103  RH  040%=      5-min Rain = 0
KMC1 252027Z 04007KT 25/11 A3018 RMK A01 T02500110  RH  041%=      5-min Rain = 0
KMC1 252028Z 05012KT 25/11 A3018 RMK A01 T02530110  RH  041%=      5-min Rain = 0
KMC1 252029Z 04011KT 25/10 A3018 RMK A01 T02530102  RH  039%=      5-min Rain = 0
KMC1 252030Z 05009KT 25/10 A3018 RMK A01 T02510103  RH  039%=      5-min Rain = 0
KMC1 252031Z 05009KT 25/10 A3018 RMK A01 T02500101  RH  039%=      5-min Rain = 0
KMC1 252032Z 06007KT 25/10 A3018 RMK A01 T02490102  RH  039%=      5-min Rain = 0
KMC1 252033Z 03011KT 25/11 A3018 RMK A01 T02490107  RH  041%=      5-min Rain = 0
KMC1 252034Z 05010G15KT 25/10 A3018 RMK A01 T02500102  RH  039%=      5-min Rain = 0
KMC1 252035Z 05008KT 25/10 A3018 RMK A01 T02510100  RH  039%=      5-min Rain = 0
KMC1 252036Z 05007KT 25/10 A3018 RMK A01 T02510100  RH  039%=      5-min Rain = 0
KMC1 252037Z 05008G13KT 25/10 A3018 RMK A01 T02510101  RH  039%=      5-min Rain = 0
KMC1 252038Z 07009KT 25/10 A3018 RMK A01 T02520100  RH  038%=      5-min Rain = 0
KMC1 252039Z 05009KT 25/11 A3018 RMK A01 T02510106  RH  040%=      5-min Rain = 0
KMC1 252040Z 03009KT 25/10 A3018 RMK A01 T02520103  RH  039%=      5-min Rain = 0
KMC1 252041Z 03007KT 25/11 A3018 RMK A01 T02510105  RH  040%=      5-min Rain = 0
KMC1 252042Z 03008KT 25/10 A3018 RMK A01 T02510103  RH  039%=      5-min Rain = 0
KMC1 252043Z 03009KT 25/10 A3018 RMK A01 T02510099  RH  038%=      5-min Rain = 0
KMC1 252044Z 04010KT 25/10 A3018 RMK A01 T02500102  RH  039%=      5-min Rain = 0
KMC1 252045Z 05009KT 25/10 A3018 RMK A01 T02520102  RH  039%=      5-min Rain = 0
KMC1 252046Z 03011KT 25/10 A3018 RMK A01 T02520102  RH  039%=      5-min Rain = 0
KMC1 252047Z 06010KT 25/10 A3018 RMK A01 T02520101  RH  039%=      5-min Rain = 0
KMC1 252048Z 05009KT 25/10 A3018 RMK A01 T02520099  RH  038%=      5-min Rain = 0
KMC1 252049Z 04007KT 25/10 A3018 RMK A01 T02510099  RH  038%=      5-min Rain = 0
KMC1 252050Z 03008KT 25/10 A3018 RMK A01 T02510102  RH  039%=      5-min Rain = 0
KMC1 252051Z 03012KT 25/10 A3018 RMK A01 T02520100  RH  038%=      5-min Rain = 0
KMC1 252052Z 03013KT 25/10 A3018 RMK A01 T02520097  RH  038%=      5-min Rain = 0
KMC1 252053Z 03010G16KT 25/09 A3018 RMK A01 T02500094  RH  037%=      5-min Rain = 0
KMC1 252054Z 03012KT 25/10 A3018 RMK A01 T02490096  RH  038%=      5-min Rain = 0
KMC1 252055Z 04011KT 25/09 A3017 RMK A01 T02480094  RH  038%=      5-min Rain = 0
KMC1 252056Z 06011KT 25/10 A3017 RMK A01 T02470097  RH  038%=      5-min Rain = 0
KMC1 252057Z 05008KT 25/10 A3017 RMK A01 T02480097  RH  038%=      5-min Rain = 0
KMC1 252058Z 05008KT 25/10 A3017 RMK A01 T02500097  RH  038%=      5-min Rain = 0
KMC1 252059Z 05009KT 25/10 A3017 RMK A01 T02510097  RH  038%=      5-min Rain = 0
KMC1 252100Z 05010KT 25/10 A3017 RMK A01 T02530100  RH  038%=      5-min Rain = 0
KMC1 252101Z 04012KT 25/09 A3017 RMK A01 T02530092  RH  036%=      5-min Rain = 0
KMC1 252102Z 03012KT 25/09 A3017 RMK A01 T02500091  RH  037%=      5-min Rain = 0
KMC1 252103Z 03008KT 25/09 A3017 RMK A01 T02480092  RH  037%=      5-min Rain = 0
KMC1 252104Z 04007KT 25/09 A3017 RMK A01 T02480091  RH  037%=      5-min Rain = 0
KMC1 252105Z 05007G12KT 25/10 A3017 RMK A01 T02480099  RH  039%=      5-min Rain = 0
KMC1 252106Z 04008KT 25/10 A3017 RMK A01 T02510097  RH  038%=      5-min Rain = 0
KMC1 252107Z 04009KT 25/09 A3017 RMK A01 T02520094  RH  037%=      5-min Rain = 0
KMC1 252108Z 04011KT 25/09 A3017 RMK A01 T02510094  RH  037%=      5-min Rain = 0
KMC1 252109Z 05011KT 25/09 A3017 RMK A01 T02510093  RH  037%=      5-min Rain = 0
KMC1 252110Z 05009KT 25/09 A3017 RMK A01 T02510090  RH  036%=      5-min Rain = 0
KMC1 252111Z 06004KT 25/09 A3017 RMK A01 T02500094  RH  037%=      5-min Rain = 0
KMC1 252112Z 06007KT 25/10 A3017 RMK A01 T02530099  RH  038%=      5-min Rain = 0
KMC1 252113Z 03008KT 26/10 A3017 RMK A01 T02560098  RH  037%=      5-min Rain = 0
KMC1 252114Z 03008KT 26/10 A3017 RMK A01 T02560095  RH  036%=      5-min Rain = 0
KMC1 252115Z 04009KT 26/09 A3017 RMK A01 T02560094  RH  036%=      5-min Rain = 0
KMC1 252116Z 05011KT 26/09 A3017 RMK A01 T02550091  RH  035%=      5-min Rain = 0
KMC1 252117Z 04012KT 25/09 A3017 RMK A01 T02530088  RH  035%=      5-min Rain = 0
KMC1 252118Z 04009KT 25/09 A3017 RMK A01 T02520087  RH  035%=      5-min Rain = 0
KMC1 252119Z 04008KT 25/09 A3017 RMK A01 T02530089  RH  035%=      5-min Rain = 0
KMC1 252120Z 04009KT 25/09 A3017 RMK A01 T02540085  RH  034%=      5-min Rain = 0
KMC1 252121Z 06009KT 25/09 A3017 RMK A01 T02510086  RH  035%=      5-min Rain = 0
KMC1 252122Z 06011KT 25/09 A3017 RMK A01 T02500091  RH  036%=      5-min Rain = 0
KMC1 252123Z 06009KT 25/09 A3017 RMK A01 T02510087  RH  035%=      5-min Rain = 0
KMC1 252124Z 05005KT 25/09 A3017 RMK A01 T02510089  RH  036%=      5-min Rain = 0
KMC1 252125Z 06008KT 25/09 A3017 RMK A01 T02510092  RH  037%=      5-min Rain = 0
KMC1 252126Z 05009KT 25/09 A3017 RMK A01 T02510089  RH  036%=      5-min Rain = 0
KMC1 252127Z 08010KT 25/09 A3017 RMK A01 T02510089  RH  036%=      5-min Rain = 0
KMC1 252128Z 07008G13KT 25/09 A3017 RMK A01 T02510088  RH  035%=      5-min Rain = 0
KMC1 252129Z 06008KT 25/09 A3017 RMK A01 T02510090  RH  036%=      5-min Rain = 0
KMC1 252130Z 04008KT 25/09 A3017 RMK A01 T02510085  RH  035%=      5-min Rain = 0
KMC1 252131Z 03009KT 25/09 A3017 RMK A01 T02520092  RH  036%=      5-min Rain = 0
KMC1 252132Z 03010KT 25/09 A3017 RMK A01 T02540087  RH  035%=      5-min Rain = 0
KMC1 252133Z 05010KT 25/08 A3017 RMK A01 T02530084  RH  034%=      5-min Rain = 0
KMC1 252134Z 06009KT 25/08 A3017 RMK A01 T02530084  RH  034%=      5-min Rain = 0
KMC1 252135Z 07009KT 25/08 A3017 RMK A01 T02520081  RH  034%=      5-min Rain = 0
KMC1 252136Z 07009KT 25/08 A3017 RMK A01 T02510080  RH  034%=      5-min Rain = 0
KMC1 252137Z 07005G11KT 25/08 A3017 RMK A01 T02520083  RH  034%=      5-min Rain = 0
KMC1 252138Z 07007KT 25/08 A3017 RMK A01 T02530081  RH  033%=      5-min Rain = 0
KMC1 252139Z 05008G13KT 25/09 A3017 RMK A01 T02530086  RH  035%=      5-min Rain = 0
KMC1 252140Z 04011KT 25/08 A3017 RMK A01 T02530079  RH  033%=      5-min Rain = 0
KMC1 252141Z 04009KT 25/08 A3017 RMK A01 T02520081  RH  034%=      5-min Rain = 0
KMC1 252142Z 05009KT 25/08 A3017 RMK A01 T02500077  RH  033%=      5-min Rain = 0
KMC1 252143Z 06010KT 25/08 A3017 RMK A01 T02470080  RH  034%=      5-min Rain = 0
KMC1 252144Z 06010KT 25/08 A3017 RMK A01 T02470079  RH  034%=      5-min Rain = 0
KMC1 252145Z 06012KT 25/08 A3017 RMK A01 T02480075  RH  033%=      5-min Rain = 0
KMC1 252146Z 05008KT 25/08 A3017 RMK A01 T02480081  RH  034%=      5-min Rain = 0
KMC1 252147Z 07009KT 25/08 A3016 RMK A01 T02520082  RH  034%=      5-min Rain = 0
KMC1 252148Z 07008KT 25/08 A3016 RMK A01 T02530077  RH  033%=      5-min Rain = 0
KMC1 252149Z 08005G10KT 25/08 A3016 RMK A01 T02530078  RH  033%=      5-min Rain = 0
KMC1 252150Z 06005KT 25/08 A3016 RMK A01 T02540081  RH  033%=      5-min Rain = 0
KMC1 252151Z 04010KT 26/08 A3016 RMK A01 T02550078  RH  032%=      5-min Rain = 0
KMC1 252152Z 05010G15KT 25/08 A3017 RMK A01 T02540078  RH  033%=      5-min Rain = 0
KMC1 252153Z 05011G16KT 25/08 A3017 RMK A01 T02540079  RH  033%=      5-min Rain = 0
KMC1 252154Z 05008KT 25/08 A3017 RMK A01 T02530077  RH  033%=      5-min Rain = 0
KMC1 252155Z 06008KT 25/08 A3017 RMK A01 T02530078  RH  033%=      5-min Rain = 0
KMC1 252156Z 05009KT 25/08 A3017 RMK A01 T02530075  RH  032%=      5-min Rain = 0
KMC1 252157Z 06007G12KT 25/08 A3017 RMK A01 T02530078  RH  033%=      5-min Rain = 0
KMC1 252158Z 06008KT 25/08 A3017 RMK A01 T02530079  RH  033%=      5-min Rain = 0
KMC1 252159Z 06008KT 25/08 A3017 RMK A01 T02530076  RH  032%=      5-min Rain = 0
KMC1 252200Z 07008G13KT 25/08 A3017 RMK A01 T02540078  RH  033%=      5-min Rain = 0
KMC1 252201Z 07010KT 25/08 A3017 RMK A01 T02540076  RH  032%=      5-min Rain = 0
KMC1 252202Z 06010KT 26/07 A3017 RMK A01 T02550074  RH  032%=      5-min Rain = 0
KMC1 252203Z 05008G13KT 26/07 A3017 RMK A01 T02550074  RH  031%=      5-min Rain = 0
KMC1 252204Z 07007KT 26/07 A3017 RMK A01 T02550074  RH  032%=      5-min Rain = 0
KMC1 252205Z 07008KT 26/07 A3017 RMK A01 T02550071  RH  031%=      5-min Rain = 0
KMC1 252206Z 06007KT 26/07 A3017 RMK A01 T02550070  RH  031%=      5-min Rain = 0
KMC1 252207Z 06005KT 26/07 A3016 RMK A01 T02550073  RH  031%=      5-min Rain = 0
KMC1 252208Z 05009KT 26/07 A3016 RMK A01 T02550069  RH  031%=      5-min Rain = 0
KMC1 252209Z 06007KT 26/07 A3016 RMK A01 T02550073  RH  031%=      5-min Rain = 0
KMC1 252210Z 04007KT 26/07 A3017 RMK A01 T02550071  RH  031%=      5-min Rain = 0
KMC1 252211Z 04010KT 26/07 A3017 RMK A01 T02550069  RH  030%=      5-min Rain = 0
KMC1 252212Z 05008KT 25/07 A3017 RMK A01 T02530065  RH  030%=      5-min Rain = 0
KMC1 252213Z 04007G13KT 25/07 A3017 RMK A01 T02510070  RH  031%=      5-min Rain = 0
KMC1 252214Z 04013KT 25/07 A3017 RMK A01 T02510069  RH  031%=      5-min Rain = 0
KMC1 252215Z 03009KT 25/07 A3017 RMK A01 T02510067  RH  031%=      5-min Rain = 0
KMC1 252216Z 04011G16KT 25/07 A3017 RMK A01 T02510072  RH  032%=      5-min Rain = 0
KMC1 252217Z 04012KT 25/07 A3017 RMK A01 T02510069  RH  031%=      5-min Rain = 0
KMC1 252218Z 04010KT 25/06 A3017 RMK A01 T02500063  RH  030%=      5-min Rain = 0
KMC1 252219Z 04011KT 25/07 A3017 RMK A01 T02490067  RH  031%=      5-min Rain = 0
KMC1 252220Z 04009KT 25/06 A3017 RMK A01 T02480064  RH  031%=      5-min Rain = 0
KMC1 252221Z 05010KT 25/07 A3017 RMK A01 T02480069  RH  032%=      5-min Rain = 0
KMC1 252222Z 05009KT 25/07 A3017 RMK A01 T02500065  RH  031%=      5-min Rain = 0
KMC1 252223Z 06008KT 25/06 A3017 RMK A01 T02500063  RH  030%=      5-min Rain = 0
KMC1 252224Z 04008KT 25/06 A3017 RMK A01 T02500060  RH  029%=      5-min Rain = 0
KMC1 252225Z 05009KT 25/06 A3017 RMK A01 T02500063  RH  030%=      5-min Rain = 0
KMC1 252226Z 06011KT 25/07 A3017 RMK A01 T02500066  RH  031%=      5-min Rain = 0
KMC1 252227Z 07008KT 25/07 A3017 RMK A01 T02500067  RH  031%=      5-min Rain = 0
KMC1 252228Z 06005KT 25/07 A3017 RMK A01 T02510073  RH  032%=      5-min Rain = 0
KMC1 252229Z 05009KT 25/07 A3017 RMK A01 T02520069  RH  031%=      5-min Rain = 0
KMC1 252230Z 04010KT 25/07 A3017 RMK A01 T02520067  RH  031%=      5-min Rain = 0
KMC1 252231Z 04010KT 25/07 A3017 RMK A01 T02510065  RH  030%=      5-min Rain = 0
KMC1 252232Z 06007KT 25/07 A3017 RMK A01 T02500068  RH  031%=      5-min Rain = 0
KMC1 252233Z 05008KT 25/07 A3017 RMK A01 T02500068  RH  031%=      5-min Rain = 0
KMC1 252234Z 05008KT 25/06 A3017 RMK A01 T02500064  RH  030%=      5-min Rain = 0
KMC1 252235Z 03007KT 25/07 A3017 RMK A01 T02500066  RH  031%=      5-min Rain = 0
KMC1 252236Z 03009KT 25/07 A3017 RMK A01 T02500071  RH  032%=      5-min Rain = 0
KMC1 252237Z 04009G15KT 25/07 A3017 RMK A01 T02510069  RH  031%=      5-min Rain = 0
KMC1 252238Z 05005KT 25/07 A3017 RMK A01 T02520070  RH  031%=      5-min Rain = 0
KMC1 252239Z 08005KT 25/07 A3017 RMK A01 T02520074  RH  032%=      5-min Rain = 0
KMC1 252240Z 07007KT 25/07 A3017 RMK A01 T02530072  RH  031%=      5-min Rain = 0
KMC1 252241Z 06007KT 25/07 A3017 RMK A01 T02540071  RH  031%=      5-min Rain = 0
KMC1 252242Z 04005KT 26/07 A3017 RMK A01 T02550072  RH  031%=      5-min Rain = 0
KMC1 252243Z 04011KT 26/07 A3017 RMK A01 T02550069  RH  031%=      5-min Rain = 0
KMC1 252244Z 05009KT 25/07 A3017 RMK A01 T02530067  RH  030%=      5-min Rain = 0
KMC1 252245Z 06006KT 25/07 A3017 RMK A01 T02510067  RH  031%=      5-min Rain = 0
KMC1 252246Z 05007KT 25/07 A3017 RMK A01 T02500069  RH  031%=      5-min Rain = 0
KMC1 252247Z 04008KT 25/07 A3017 RMK A01 T02510070  RH  032%=      5-min Rain = 0
KMC1 252248Z 04008KT 25/07 A3017 RMK A01 T02510069  RH  031%=      5-min Rain = 0
KMC1 252249Z 04010KT 25/07 A3017 RMK A01 T02510068  RH  031%=      5-min Rain = 0
KMC1 252250Z 04010KT 25/06 A3017 RMK A01 T02500062  RH  030%=      5-min Rain = 0
KMC1 252251Z 04008G13KT 25/07 A3017 RMK A01 T02490065  RH  031%=      5-min Rain = 0
KMC1 252252Z 04009KT 25/07 A3017 RMK A01 T02480066  RH  031%=      5-min Rain = 0
KMC1 252253Z 03010KT 25/07 A3017 RMK A01 T02480066  RH  031%=      5-min Rain = 0
KMC1 252254Z 04011KT 25/07 A3017 RMK A01 T02490065  RH  031%=      5-min Rain = 0
KMC1 252255Z 04010KT 25/06 A3017 RMK A01 T02490062  RH  030%=      5-min Rain = 0
KMC1 252256Z 04009KT 25/06 A3017 RMK A01 T02490062  RH  030%=      5-min Rain = 0
KMC1 252257Z 03009KT 25/07 A3017 RMK A01 T02480066  RH  031%=      5-min Rain = 0
KMC1 252258Z 04010KT 25/06 A3017 RMK A01 T02480064  RH  031%=      5-min Rain = 0
KMC1 252259Z 04009KT 25/06 A3017 RMK A01 T02480063  RH  030%=      5-min Rain = 0
KMC1 252300Z 04010KT 25/06 A3017 RMK A01 T02470064  RH  031%=      5-min Rain = 0
KMC1 252301Z 04009KT 25/07 A3017 RMK A01 T02470067  RH  032%=      5-min Rain = 0
KMC1 252302Z 04008KT 25/07 A3017 RMK A01 T02470068  RH  032%=      5-min Rain = 0
KMC1 252303Z 04008KT 25/07 A3017 RMK A01 T02470069  RH  032%=      5-min Rain = 0
KMC1 252304Z 03009KT 25/07 A3017 RMK A01 T02480068  RH  032%=      5-min Rain = 0
KMC1 252305Z 04012KT 25/07 A3017 RMK A01 T02480069  RH  032%=      5-min Rain = 0
KMC1 252306Z 03008KT 25/07 A3017 RMK A01 T02470069  RH  032%=      5-min Rain = 0
KMC1 252307Z 03009KT 25/07 A3017 RMK A01 T02460071  RH  033%=      5-min Rain = 0
KMC1 252308Z 04009KT 25/07 A3017 RMK A01 T02460071  RH  033%=      5-min Rain = 0
KMC1 252309Z 04010KT 25/07 A3017 RMK A01 T02460070  RH  032%=      5-min Rain = 0
KMC1 252310Z 03012KT 25/07 A3017 RMK A01 T02460070  RH  032%=      5-min Rain = 0
KMC1 252311Z 04012KT 25/07 A3017 RMK A01 T02460070  RH  032%=      5-min Rain = 0
KMC1 252312Z 05009KT 25/07 A3017 RMK A01 T02450068  RH  032%=      5-min Rain = 0
KMC1 252313Z 04008KT 25/07 A3017 RMK A01 T02450069  RH  032%=      5-min Rain = 0
KMC1 252314Z 04010KT 25/07 A3017 RMK A01 T02450070  RH  033%=      5-min Rain = 0
KMC1 252315Z 03009KT 25/07 A3017 RMK A01 T02450070  RH  033%=      5-min Rain = 0
KMC1 252316Z 04009KT 25/07 A3017 RMK A01 T02450071  RH  033%=      5-min Rain = 0
KMC1 252317Z 05006KT 25/07 A3018 RMK A01 T02450069  RH  032%=      5-min Rain = 0
KMC1 252318Z 04006KT 25/07 A3018 RMK A01 T02450073  RH  033%=      5-min Rain = 0
KMC1 252319Z 03005KT 25/08 A3018 RMK A01 T02460075  RH  034%=      5-min Rain = 0
KMC1 252320Z 04007KT 25/07 A3018 RMK A01 T02460073  RH  033%=      5-min Rain = 0
KMC1 252321Z 04007KT 25/07 A3018 RMK A01 T02470072  RH  033%=      5-min Rain = 0
KMC1 252322Z 03008KT 25/07 A3018 RMK A01 T02460073  RH  033%=      5-min Rain = 0
KMC1 252323Z 03006KT 25/07 A3018 RMK A01 T02460074  RH  033%=      5-min Rain = 0
KMC1 252324Z 04009KT 25/07 A3018 RMK A01 T02460073  RH  033%=      5-min Rain = 0
KMC1 252325Z 05008KT 25/08 A3018 RMK A01 T02450075  RH  034%=      5-min Rain = 0
KMC1 252326Z 05008KT 25/07 A3018 RMK A01 T02450073  RH  033%=      5-min Rain = 0
KMC1 252327Z 04007KT 25/07 A3018 RMK A01 T02450072  RH  033%=      5-min Rain = 0
KMC1 252328Z 04008KT 24/07 A3018 RMK A01 T02440073  RH  033%=      5-min Rain = 0
KMC1 252329Z 04007KT 24/07 A3018 RMK A01 T02430073  RH  034%=      5-min Rain = 0
KMC1 252330Z 04010KT 24/07 A3018 RMK A01 T02430072  RH  033%=      5-min Rain = 0
KMC1 252331Z 04008KT 24/07 A3018 RMK A01 T02420070  RH  033%=      5-min Rain = 0
KMC1 252332Z 04009KT 24/07 A3018 RMK A01 T02410072  RH  034%=      5-min Rain = 0
KMC1 252333Z 05009KT 24/07 A3018 RMK A01 T02410072  RH  034%=      5-min Rain = 0
KMC1 252334Z 05009KT 24/07 A3018 RMK A01 T02400072  RH  034%=      5-min Rain = 0
KMC1 252335Z 04009G15KT 24/07 A3018 RMK A01 T02400072  RH  034%=      5-min Rain = 0
KMC1 252336Z 05010KT 24/07 A3018 RMK A01 T02400073  RH  034%=      5-min Rain = 0
KMC1 252337Z 05009KT 24/07 A3018 RMK A01 T02400071  RH  034%=      5-min Rain = 0
KMC1 252338Z 04009KT 24/07 A3018 RMK A01 T02390071  RH  034%=      5-min Rain = 0
KMC1 252339Z 04010KT 24/07 A3018 RMK A01 T02380070  RH  034%=      5-min Rain = 0
KMC1 252340Z 04010KT 24/07 A3018 RMK A01 T02370067  RH  034%=      5-min Rain = 0
KMC1 252341Z 04012KT 24/07 A3018 RMK A01 T02370068  RH  034%=      5-min Rain = 0
KMC1 252342Z 04011KT 24/07 A3018 RMK A01 T02360069  RH  034%=      5-min Rain = 0
KMC1 252343Z 04008KT 24/07 A3018 RMK A01 T02350069  RH  034%=      5-min Rain = 0
KMC1 252344Z 04009KT 24/07 A3018 RMK A01 T02350071  RH  035%=      5-min Rain = 0
KMC1 252345Z 04010KT 24/07 A3018 RMK A01 T02350069  RH  034%=      5-min Rain = 0
KMC1 252346Z 05006KT 24/07 A3018 RMK A01 T02350070  RH  035%=      5-min Rain = 0
KMC1 252347Z 05008KT 24/07 A3018 RMK A01 T02350071  RH  035%=      5-min Rain = 0
KMC1 252348Z 05008KT 24/07 A3018 RMK A01 T02360071  RH  035%=      5-min Rain = 0
KMC1 252349Z 05007KT 24/07 A3018 RMK A01 T02360072  RH  035%=      5-min Rain = 0
KMC1 252350Z 05009KT 24/07 A3018 RMK A01 T02360073  RH  035%=      5-min Rain = 0
KMC1 252351Z 05007KT 24/07 A3018 RMK A01 T02360071  RH  035%=      5-min Rain = 0
KMC1 252352Z 04008KT 24/07 A3018 RMK A01 T02360073  RH  035%=      5-min Rain = 0
KMC1 252353Z 05011KT 24/07 A3018 RMK A01 T02350072  RH  035%=      5-min Rain = 0
KMC1 252354Z 03009KT 23/07 A3018 RMK A01 T02340070  RH  035%=      5-min Rain = 0
KMC1 252355Z 04009KT 23/07 A3018 RMK A01 T02340072  RH  035%=      5-min Rain = 0
KMC1 252356Z 05007KT 23/07 A3018 RMK A01 T02330072  RH  036%=      5-min Rain = 0
KMC1 252357Z 05008KT 23/07 A3018 RMK A01 T02330071  RH  035%=      5-min Rain = 0
KMC1 252358Z 04007KT 23/07 A3018 RMK A01 T02320073  RH  036%=      5-min Rain = 0
KMC1 252359Z 04009KT 23/07 A3018 RMK A01 T02310073  RH  036%=      5-min Rain = 0
KMC1 260000Z 04009KT 23/07 A3018 RMK A01 T02300071  RH  036%=      5-min Rain = 0
KMC1 260001Z 04009KT 23/07 A3018 RMK A01 T02290070  RH  036%=      5-min Rain = 0
KMC1 260002Z 04008KT 23/07 A3018 RMK A01 T02280070  RH  036%=      5-min Rain = 0
KMC1 260003Z 04009KT 23/07 A3018 RMK A01 T02280071  RH  036%=      5-min Rain = 0
KMC1 260004Z 04009KT 23/07 A3018 RMK A01 T02270069  RH  036%=      5-min Rain = 0
KMC1 260005Z 05009KT 23/07 A3018 RMK A01 T02270068  RH  036%=      5-min Rain = 0
KMC1 260006Z 04008KT 23/07 A3018 RMK A01 T02270069  RH  036%=      5-min Rain = 0
KMC1 260007Z 05008KT 23/07 A3018 RMK A01 T02270070  RH  036%=      5-min Rain = 0
KMC1 260008Z 05005KT 23/07 A3018 RMK A01 T02270071  RH  036%=      5-min Rain = 0
KMC1 260009Z 05008KT 23/07 A3018 RMK A01 T02270072  RH  037%=      5-min Rain = 0
KMC1 260010Z 05006KT 23/07 A3018 RMK A01 T02270069  RH  036%=      5-min Rain = 0
KMC1 260011Z 05008KT 23/07 A3018 RMK A01 T02270070  RH  036%=      5-min Rain = 0
KMC1 260012Z 06006KT 23/07 A3018 RMK A01 T02270070  RH  036%=      5-min Rain = 0
KMC1 260013Z 05007KT 23/07 A3018 RMK A01 T02270070  RH  036%=      5-min Rain = 0
KMC1 260014Z 05007KT 23/07 A3018 RMK A01 T02270070  RH  037%=      5-min Rain = 0
KMC1 260015Z 05006KT 23/07 A3018 RMK A01 T02260071  RH  037%=      5-min Rain = 0
KMC1 260016Z 04006KT 22/07 A3018 RMK A01 T02240072  RH  038%=      5-min Rain = 0
KMC1 260017Z 05007KT 22/07 A3018 RMK A01 T02230071  RH  038%=      5-min Rain = 0
KMC1 260018Z 05007KT 22/07 A3019 RMK A01 T02220071  RH  038%=      5-min Rain = 0
KMC1 260019Z 05007KT 22/07 A3018 RMK A01 T02210070  RH  038%=      5-min Rain = 0
KMC1 260020Z 04007KT 22/07 A3019 RMK A01 T02210070  RH  038%=      5-min Rain = 0
KMC1 260021Z 04008KT 22/07 A3019 RMK A01 T02210070  RH  038%=      5-min Rain = 0
KMC1 260022Z 05006KT 22/07 A3019 RMK A01 T02210070  RH  038%=      5-min Rain = 0
KMC1 260023Z 05006G11KT 22/07 A3019 RMK A01 T02210071  RH  038%=      5-min Rain = 0
KMC1 260024Z 04008KT 22/07 A3019 RMK A01 T02210070  RH  038%=      5-min Rain = 0
KMC1 260025Z 04006KT 22/07 A3019 RMK A01 T02210070  RH  038%=      5-min Rain = 0
KMC1 260026Z 04008KT 22/07 A3019 RMK A01 T02210071  RH  038%=      5-min Rain = 0
KMC1 260027Z 05007KT 22/07 A3019 RMK A01 T02200071  RH  038%=      5-min Rain = 0
KMC1 260028Z 05008KT 22/07 A3019 RMK A01 T02200070  RH  038%=      5-min Rain = 0
KMC1 260029Z 04007KT 22/07 A3019 RMK A01 T02200071  RH  038%=      5-min Rain = 0
KMC1 260030Z 04007KT 22/07 A3019 RMK A01 T02200071  RH  038%=      5-min Rain = 0
KMC1 260031Z 05006KT 22/07 A3019 RMK A01 T02190071  RH  038%=      5-min Rain = 0
KMC1 260032Z 05007KT 22/07 A3019 RMK A01 T02190071  RH  039%=      5-min Rain = 0
KMC1 260033Z 05007G12KT 22/07 A3019 RMK A01 T02180072  RH  039%=      5-min Rain = 0
KMC1 260034Z 04008KT 22/07 A3019 RMK A01 T02170071  RH  039%=      5-min Rain = 0
KMC1 260035Z 04007KT 22/07 A3019 RMK A01 T02170071  RH  039%=      5-min Rain = 0
KMC1 260036Z 04007KT 22/07 A3019 RMK A01 T02160071  RH  039%=      5-min Rain = 0
KMC1 260037Z 04005KT 22/07 A3019 RMK A01 T02160071  RH  039%=      5-min Rain = 0
KMC1 260038Z 05006KT 21/07 A3019 RMK A01 T02140071  RH  040%=      5-min Rain = 0
KMC1 260039Z 04007KT 21/07 A3019 RMK A01 T02130071  RH  040%=      5-min Rain = 0
KMC1 260040Z 05007KT 21/07 A3019 RMK A01 T02120071  RH  040%=      5-min Rain = 0
KMC1 260041Z 05006KT 21/07 A3019 RMK A01 T02120071  RH  040%=      5-min Rain = 0
KMC1 260042Z 05007KT 21/07 A3019 RMK A01 T02120072  RH  040%=      5-min Rain = 0
KMC1 260043Z 05007KT 21/07 A3019 RMK A01 T02110071  RH  040%=      5-min Rain = 0
KMC1 260044Z 05006KT 21/07 A3019 RMK A01 T02100071  RH  040%=      5-min Rain = 0
KMC1 260045Z 05008KT 21/07 A3019 RMK A01 T02100071  RH  041%=      5-min Rain = 0
KMC1 260046Z 04006KT 21/07 A3019 RMK A01 T02090071  RH  041%=      5-min Rain = 0
KMC1 260047Z 05006KT 21/07 A3019 RMK A01 T02090071  RH  041%=      5-min Rain = 0
KMC1 260048Z 05007KT 21/07 A3019 RMK A01 T02080071  RH  041%=      5-min Rain = 0
KMC1 260049Z 05007KT 21/07 A3019 RMK A01 T02080071  RH  041%=      5-min Rain = 0
KMC1 260050Z 05007KT 21/07 A3019 RMK A01 T02070071  RH  041%=      5-min Rain = 0
KMC1 260051Z 06005KT 21/07 A3019 RMK A01 T02070072  RH  042%=      5-min Rain = 0
KMC1 260052Z 05007KT 21/07 A3019 RMK A01 T02060071  RH  042%=      5-min Rain = 0
KMC1 260053Z 05007KT 21/07 A3019 RMK A01 T02050071  RH  042%=      5-min Rain = 0
KMC1 260054Z 05006KT 21/07 A3019 RMK A01 T02050071  RH  042%=      5-min Rain = 0
KMC1 260055Z 05006KT 20/07 A3019 RMK A01 T02040071  RH  042%=      5-min Rain = 0
KMC1 260056Z 05006KT 20/07 A3019 RMK A01 T02030071  RH  042%=      5-min Rain = 0
KMC1 260057Z 05006KT 20/07 A3019 RMK A01 T02030071  RH  043%=      5-min Rain = 0
KMC1 260058Z 05006KT 20/07 A3019 RMK A01 T02020071  RH  043%=      5-min Rain = 0
KMC1 260059Z 05006KT 20/07 A3019 RMK A01 T02020072  RH  043%=      5-min Rain = 0
KMC1 260100Z 05006KT 20/07 A3019 RMK A01 T02010071  RH  043%=      5-min Rain = 0
KMC1 260101Z 05006KT 20/07 A3019 RMK A01 T02010072  RH  043%=      5-min Rain = 0
KMC1 260102Z 05006KT 20/07 A3019 RMK A01 T02000071  RH  043%=      5-min Rain = 0
KMC1 260103Z 05005KT 20/07 A3019 RMK A01 T02000072  RH  043%=      5-min Rain = 0
KMC1 260104Z 05005KT 20/07 A3019 RMK A01 T01990072  RH  044%=      5-min Rain = 0
KMC1 260105Z 05005KT 20/07 A3019 RMK A01 T01980071  RH  044%=      5-min Rain = 0
KMC1 260106Z 05005KT 20/07 A3019 RMK A01 T01980072  RH  044%=      5-min Rain = 0
KMC1 260107Z 05006KT 20/07 A3019 RMK A01 T01970072  RH  044%=      5-min Rain = 0
KMC1 260108Z 06007KT 20/07 A3019 RMK A01 T01970072  RH  044%=      5-min Rain = 0
KMC1 260109Z 06006KT 20/07 A3019 RMK A01 T01970072  RH  044%=      5-min Rain = 0
KMC1 260110Z 05006KT 20/07 A3019 RMK A01 T01960072  RH  044%=      5-min Rain = 0
KMC1 260111Z 06005KT 20/07 A3019 RMK A01 T01950072  RH  045%=      5-min Rain = 0
KMC1 260112Z 06005KT 20/07 A302 RMK A01 T01950072  RH  045%=      5-min Rain = 0
KMC1 260113Z 06005KT 19/07 A302 RMK A01 T01940072  RH  045%=      5-min Rain = 0
KMC1 260114Z 05005KT 19/07 A302 RMK A01 T01940072  RH  045%=      5-min Rain = 0
KMC1 260115Z 05005KT 19/07 A302 RMK A01 T01930072  RH  045%=      5-min Rain = 0
KMC1 260116Z 05006KT 19/07 A302 RMK A01 T01930072  RH  045%=      5-min Rain = 0
KMC1 260117Z 05005KT 19/07 A302 RMK A01 T01920072  RH  046%=      5-min Rain = 0
KMC1 260118Z 05005KT 19/07 A302 RMK A01 T01920072  RH  046%=      5-min Rain = 0
KMC1 260119Z 05006KT 19/07 A302 RMK A01 T01910072  RH  046%=      5-min Rain = 0
KMC1 260120Z 05006KT 19/07 A302 RMK A01 T01900072  RH  046%=      5-min Rain = 0
KMC1 260121Z 04005KT 19/07 A302 RMK A01 T01900072  RH  046%=      5-min Rain = 0
KMC1 260122Z 04006KT 19/07 A302 RMK A01 T01890073  RH  047%=      5-min Rain = 0
KMC1 260123Z 04005KT 19/07 A302 RMK A01 T01890073  RH  047%=      5-min Rain = 0
KMC1 260124Z 05006KT 19/07 A302 RMK A01 T01880073  RH  047%=      5-min Rain = 0
KMC1 260125Z 05006KT 19/07 A302 RMK A01 T01880073  RH  047%=      5-min Rain = 0
KMC1 260126Z 05004KT 19/07 A302 RMK A01 T01870073  RH  047%=      5-min Rain = 0
KMC1 260127Z 05005KT 19/07 A302 RMK A01 T01860073  RH  048%=      5-min Rain = 0
KMC1 260128Z 05005KT 19/07 A302 RMK A01 T01860073  RH  048%=      5-min Rain = 0
KMC1 260129Z 05004KT 19/07 A302 RMK A01 T01850073  RH  048%=      5-min Rain = 0
KMC1 260130Z 05005KT 19/07 A302 RMK A01 T01850072  RH  048%=      5-min Rain = 0
KMC1 260131Z 05006KT 18/07 A302 RMK A01 T01840072  RH  048%=      5-min Rain = 0
KMC1 260132Z 05005KT 18/07 A302 RMK A01 T01840072  RH  048%=      5-min Rain = 0
KMC1 260133Z 04007KT 18/07 A302 RMK A01 T01840072  RH  048%=      5-min Rain = 0
KMC1 260134Z 05006KT 18/07 A302 RMK A01 T01840071  RH  048%=      5-min Rain = 0
KMC1 260135Z 05005KT 18/07 A302 RMK A01 T01830071  RH  048%=      5-min Rain = 0
KMC1 260136Z 05005KT 18/07 A302 RMK A01 T01830071  RH  048%=      5-min Rain = 0
KMC1 260137Z 05005KT 18/07 A302 RMK A01 T01840071  RH  048%=      5-min Rain = 0
KMC1 260138Z 06005KT 18/07 A302 RMK A01 T01830071  RH  048%=      5-min Rain = 0
KMC1 260139Z 05005KT 18/07 A3021 RMK A01 T01830071  RH  048%=      5-min Rain = 0
KMC1 260140Z 05005KT 18/07 A3021 RMK A01 T01830071  RH  048%=      5-min Rain = 0
KMC1 260141Z 05005KT 18/07 A3021 RMK A01 T01820071  RH  048%=      5-min Rain = 0
KMC1 260142Z 05005KT 18/07 A3021 RMK A01 T01820071  RH  048%=      5-min Rain = 0
KMC1 260143Z 05005KT 18/07 A3021 RMK A01 T01810071  RH  049%=      5-min Rain = 0
KMC1 260144Z 05006KT 18/07 A3021 RMK A01 T01810071  RH  049%=      5-min Rain = 0
KMC1 260145Z 05005KT 18/07 A3021 RMK A01 T01800071  RH  049%=      5-min Rain = 0
KMC1 260146Z 05005KT 18/07 A3021 RMK A01 T01800071  RH  049%=      5-min Rain = 0
KMC1 260147Z 05005KT 18/07 A3021 RMK A01 T01800071  RH  049%=      5-min Rain = 0
KMC1 260148Z 05005KT 18/07 A3021 RMK A01 T01790071  RH  049%=      5-min Rain = 0
KMC1 260149Z 06005KT 18/07 A3021 RMK A01 T01790071  RH  049%=      5-min Rain = 0
KMC1 260150Z 05004KT 18/07 A3021 RMK A01 T01780071  RH  050%=      5-min Rain = 0
KMC1 260151Z 06004KT 18/07 A3021 RMK A01 T01770071  RH  050%=      5-min Rain = 0
KMC1 260152Z 06004KT 18/07 A3021 RMK A01 T01760071  RH  050%=      5-min Rain = 0
KMC1 260153Z 05003KT 18/07 A3021 RMK A01 T01760071  RH  050%=      5-min Rain = 0
KMC1 260154Z 06004KT 18/07 A3021 RMK A01 T01750071  RH  050%=      5-min Rain = 0
KMC1 260155Z 06004KT 17/07 A3021 RMK A01 T01740071  RH  051%=      5-min Rain = 0
KMC1 260156Z 07003KT 17/07 A3021 RMK A01 T01740071  RH  051%=      5-min Rain = 0
KMC1 260157Z 06004KT 17/07 A3021 RMK A01 T01730071  RH  051%=      5-min Rain = 0
KMC1 260158Z 06003KT 17/07 A3021 RMK A01 T01720071  RH  051%=      5-min Rain = 0
KMC1 260159Z 06003KT 17/07 A3021 RMK A01 T01720071  RH  052%=      5-min Rain = 0
KMC1 260200Z 06004KT 17/07 A3021 RMK A01 T01710071  RH  052%=      5-min Rain = 0
KMC1 260201Z 05003KT 17/07 A3021 RMK A01 T01700071  RH  052%=      5-min Rain = 0
KMC1 260202Z 06004KT 17/07 A3021 RMK A01 T01700072  RH  052%=      5-min Rain = 0
KMC1 260203Z 06003KT 17/07 A3021 RMK A01 T01690071  RH  053%=      5-min Rain = 0
KMC1 260204Z 06003KT 17/07 A3021 RMK A01 T01680071  RH  053%=      5-min Rain = 0
KMC1 260205Z 06003KT 17/07 A3021 RMK A01 T01680071  RH  053%=      5-min Rain = 0
KMC1 260206Z 06004KT 17/07 A3021 RMK A01 T01670071  RH  053%=      5-min Rain = 0
KMC1 260207Z 06003KT 17/07 A3022 RMK A01 T01660071  RH  053%=      5-min Rain = 0
KMC1 260208Z 05004KT 17/07 A3022 RMK A01 T01660071  RH  053%=      5-min Rain = 0
KMC1 260209Z 06003KT 17/07 A3022 RMK A01 T01660071  RH  054%=      5-min Rain = 0
KMC1 260210Z 06003KT 17/07 A3022 RMK A01 T01650071  RH  054%=      5-min Rain = 0
KMC1 260211Z 06003KT 17/07 A3022 RMK A01 T01650071  RH  054%=      5-min Rain = 0
KMC1 260212Z 06003KT 16/07 A3022 RMK A01 T01640071  RH  054%=      5-min Rain = 0
KMC1 260213Z 06003KT 16/07 A3022 RMK A01 T01630071  RH  054%=      5-min Rain = 0
KMC1 260214Z 06003KT 16/07 A3022 RMK A01 T01630071  RH  055%=      5-min Rain = 0
KMC1 260215Z 06003KT 16/07 A3022 RMK A01 T01630072  RH  055%=      5-min Rain = 0
KMC1 260216Z 06004KT 16/07 A3022 RMK A01 T01620072  RH  055%=      5-min Rain = 0
KMC1 260217Z 06003KT 16/07 A3022 RMK A01 T01620072  RH  055%=      5-min Rain = 0
KMC1 260218Z 06004KT 16/07 A3022 RMK A01 T01620072  RH  055%=      5-min Rain = 0
KMC1 260219Z 06003KT 16/07 A3022 RMK A01 T01610072  RH  055%=      5-min Rain = 0
KMC1 260220Z 06003KT 16/07 A3022 RMK A01 T01610072  RH  055%=      5-min Rain = 0
KMC1 260221Z 06004KT 16/07 A3022 RMK A01 T01610072  RH  056%=      5-min Rain = 0
KMC1 260222Z 06004KT 16/07 A3022 RMK A01 T01610072  RH  056%=      5-min Rain = 0
KMC1 260223Z 07004KT 16/07 A3022 RMK A01 T01600072  RH  056%=      5-min Rain = 0
KMC1 260224Z 07004KT 16/07 A3022 RMK A01 T01600073  RH  056%=      5-min Rain = 0
KMC1 260225Z 07004KT 16/07 A3022 RMK A01 T01600072  RH  056%=      5-min Rain = 0
KMC1 260226Z 07004KT 16/07 A3022 RMK A01 T01600072  RH  056%=      5-min Rain = 0
KMC1 260227Z 06004KT 16/07 A3022 RMK A01 T01600073  RH  056%=      5-min Rain = 0
KMC1 260228Z 06004KT 16/07 A3022 RMK A01 T01600073  RH  056%=      5-min Rain = 0
KMC1 260229Z 06004KT 16/07 A3022 RMK A01 T01590072  RH  056%=      5-min Rain = 0
KMC1 260230Z 06004KT 16/07 A3022 RMK A01 T01590073  RH  056%=      5-min Rain = 0
KMC1 260231Z 06004KT 16/07 A3022 RMK A01 T01590073  RH  056%=      5-min Rain = 0
KMC1 260232Z 06004KT 16/07 A3022 RMK A01 T01590073  RH  057%=      5-min Rain = 0
KMC1 260233Z 06004KT 16/07 A3023 RMK A01 T01590073  RH  057%=      5-min Rain = 0
KMC1 260234Z 06003KT 16/07 A3023 RMK A01 T01590073  RH  057%=      5-min Rain = 0
KMC1 260235Z 06004KT 16/07 A3023 RMK A01 T01590074  RH  057%=      5-min Rain = 0
KMC1 260236Z 06003KT 16/07 A3023 RMK A01 T01580073  RH  057%=      5-min Rain = 0
KMC1 260237Z 06004KT 16/07 A3023 RMK A01 T01580073  RH  057%=      5-min Rain = 0
KMC1 260238Z 05004KT 16/07 A3023 RMK A01 T01580073  RH  057%=      5-min Rain = 0
KMC1 260239Z 05005KT 16/07 A3023 RMK A01 T01590073  RH  057%=      5-min Rain = 0
KMC1 260240Z 05004KT 16/07 A3023 RMK A01 T01590073  RH  056%=      5-min Rain = 0
KMC1 260241Z 05004KT 16/07 A3023 RMK A01 T01600073  RH  056%=      5-min Rain = 0
KMC1 260242Z 06004KT 16/07 A3023 RMK A01 T01600073  RH  056%=      5-min Rain = 0
KMC1 260243Z 05004KT 16/07 A3023 RMK A01 T01600073  RH  056%=      5-min Rain = 0
KMC1 260244Z 05004KT 16/07 A3023 RMK A01 T01600073  RH  056%=      5-min Rain = 0
KMC1 260245Z 05004KT 16/07 A3023 RMK A01 T01600073  RH  056%=      5-min Rain = 0
KMC1 260246Z 05003KT 16/07 A3023 RMK A01 T01600073  RH  056%=      5-min Rain = 0
KMC1 260247Z 05003KT 16/07 A3023 RMK A01 T01590073  RH  056%=      5-min Rain = 0
KMC1 260248Z 06003KT 16/07 A3023 RMK A01 T01590073  RH  057%=      5-min Rain = 0
KMC1 260249Z 06002KT 16/07 A3024 RMK A01 T01590073  RH  057%=      5-min Rain = 0
KMC1 260250Z 06003KT 16/07 A3024 RMK A01 T01580073  RH  057%=      5-min Rain = 0
KMC1 260251Z 06003KT 16/07 A3024 RMK A01 T01580073  RH  057%=      5-min Rain = 0
KMC1 260252Z 06003KT 16/07 A3024 RMK A01 T01570073  RH  057%=      5-min Rain = 0
KMC1 260253Z 06003KT 16/07 A3024 RMK A01 T01570073  RH  057%=      5-min Rain = 0
KMC1 260254Z 06003KT 16/07 A3024 RMK A01 T01560073  RH  058%=      5-min Rain = 0
KMC1 260255Z 06003KT 16/07 A3024 RMK A01 T01560073  RH  058%=      5-min Rain = 0
KMC1 260256Z 06003KT 16/07 A3024 RMK A01 T01550073  RH  058%=      5-min Rain = 0
KMC1 260257Z 06003KT 16/07 A3024 RMK A01 T01550073  RH  058%=      5-min Rain = 0
KMC1 260258Z 06003KT 15/07 A3024 RMK A01 T01540073  RH  058%=      5-min Rain = 0
KMC1 260259Z 06003KT 15/07 A3024 RMK A01 T01540073  RH  058%=      5-min Rain = 0
KMC1 260300Z 07003KT 15/07 A3024 RMK A01 T01530073  RH  059%=      5-min Rain = 0
KMC1 260301Z 07003KT 15/07 A3024 RMK A01 T01530072  RH  059%=      5-min Rain = 0
KMC1 260302Z 08003KT 15/07 A3024 RMK A01 T01530073  RH  059%=      5-min Rain = 0
KMC1 260303Z 07004KT 15/07 A3024 RMK A01 T01530073  RH  059%=      5-min Rain = 0
KMC1 260304Z 07004KT 15/07 A3024 RMK A01 T01520073  RH  059%=      5-min Rain = 0
KMC1 260305Z 07004KT 15/07 A3024 RMK A01 T01520073  RH  059%=      5-min Rain = 0
KMC1 260306Z 07004KT 15/07 A3024 RMK A01 T01510073  RH  060%=      5-min Rain = 0
KMC1 260307Z 07004KT 15/07 A3024 RMK A01 T01500073  RH  060%=      5-min Rain = 0
KMC1 260308Z 07003KT 15/07 A3024 RMK A01 T01500073  RH  060%=      5-min Rain = 0
KMC1 260309Z 07004KT 15/07 A3024 RMK A01 T01490073  RH  060%=      5-min Rain = 0
KMC1 260310Z 07004KT 15/07 A3024 RMK A01 T01490073  RH  061%=      5-min Rain = 0
KMC1 260311Z 07004KT 15/07 A3024 RMK A01 T01480073  RH  061%=      5-min Rain = 0
KMC1 260312Z 07003KT 15/07 A3024 RMK A01 T01480073  RH  061%=      5-min Rain = 0
KMC1 260313Z 07003KT 15/07 A3024 RMK A01 T01470073  RH  061%=      5-min Rain = 0
KMC1 260314Z 07004KT 15/07 A3025 RMK A01 T01470073  RH  061%=      5-min Rain = 0
KMC1 260315Z 07004KT 15/07 A3025 RMK A01 T01470073  RH  061%=      5-min Rain = 0
KMC1 260316Z 07004KT 15/07 A3025 RMK A01 T01470073  RH  061%=      5-min Rain = 0
KMC1 260317Z 07004KT 15/07 A3025 RMK A01 T01470073  RH  061%=      5-min Rain = 0
KMC1 260318Z 07003KT 15/07 A3025 RMK A01 T01470073  RH  061%=      5-min Rain = 0
KMC1 260319Z 07004KT 15/07 A3025 RMK A01 T01470073  RH  061%=      5-min Rain = 0
KMC1 260320Z 07004KT 15/07 A3025 RMK A01 T01460072  RH  061%=      5-min Rain = 0
KMC1 260321Z 07004KT 15/07 A3025 RMK A01 T01460072  RH  061%=      5-min Rain = 0
KMC1 260322Z 07004KT 15/07 A3025 RMK A01 T01460072  RH  061%=      5-min Rain = 0
KMC1 260323Z 07004KT 15/07 A3025 RMK A01 T01460072  RH  061%=      5-min Rain = 0
KMC1 260324Z 07004KT 15/07 A3025 RMK A01 T01460072  RH  061%=      5-min Rain = 0
KMC1 260325Z 07004KT 15/07 A3025 RMK A01 T01460072  RH  061%=      5-min Rain = 0
KMC1 260326Z 07004KT 15/07 A3025 RMK A01 T01460071  RH  061%=      5-min Rain = 0
KMC1 260327Z 07003KT 15/07 A3025 RMK A01 T01450072  RH  061%=      5-min Rain = 0
KMC1 260328Z 07004KT 15/07 A3025 RMK A01 T01450072  RH  061%=      5-min Rain = 0
KMC1 260329Z 07004KT 15/07 A3025 RMK A01 T01450072  RH  061%=      5-min Rain = 0
KMC1 260330Z 07004KT 14/07 A3025 RMK A01 T01440071  RH  061%=      5-min Rain = 0
KMC1 260331Z 07004KT 14/07 A3025 RMK A01 T01440071  RH  061%=      5-min Rain = 0
KMC1 260332Z 07003KT 14/07 A3025 RMK A01 T01440071  RH  062%=      5-min Rain = 0
KMC1 260333Z 07004KT 14/07 A3026 RMK A01 T01430071  RH  062%=      5-min Rain = 0
KMC1 260334Z 07004KT 14/07 A3026 RMK A01 T01430070  RH  062%=      5-min Rain = 0
KMC1 260335Z 07003KT 14/07 A3026 RMK A01 T01430070  RH  062%=      5-min Rain = 0
KMC1 260336Z 07004KT 14/07 A3026 RMK A01 T01420070  RH  062%=      5-min Rain = 0
KMC1 260337Z 07004KT 14/07 A3026 RMK A01 T01420070  RH  062%=      5-min Rain = 0
KMC1 260338Z 07004KT 14/07 A3026 RMK A01 T01420070  RH  062%=      5-min Rain = 0
KMC1 260339Z 07003KT 14/07 A3026 RMK A01 T01420070  RH  062%=      5-min Rain = 0
KMC1 260340Z 07003KT 14/07 A3026 RMK A01 T01420070  RH  062%=      5-min Rain = 0
KMC1 260341Z 06004KT 14/07 A3026 RMK A01 T01420069  RH  062%=      5-min Rain = 0
KMC1 260342Z 06003KT 14/07 A3026 RMK A01 T01410069  RH  062%=      5-min Rain = 0
KMC1 260343Z 05004KT 14/07 A3026 RMK A01 T01410069  RH  062%=      5-min Rain = 0
KMC1 260344Z 05004KT 14/07 A3026 RMK A01 T01420069  RH  061%=      5-min Rain = 0
KMC1 260345Z 05004KT 14/07 A3026 RMK A01 T01420069  RH  061%=      5-min Rain = 0
KMC1 260346Z 05004KT 14/07 A3026 RMK A01 T01430070  RH  061%=      5-min Rain = 0
KMC1 260347Z 05004KT 14/07 A3026 RMK A01 T01430070  RH  062%=      5-min Rain = 0
KMC1 260348Z 06003KT 14/07 A3026 RMK A01 T01420070  RH  062%=      5-min Rain = 0
KMC1 260349Z 05004KT 14/07 A3026 RMK A01 T01420070  RH  062%=      5-min Rain = 0
KMC1 260350Z 05003KT 14/07 A3026 RMK A01 T01410070  RH  062%=      5-min Rain = 0
KMC1 260351Z 06004KT 14/07 A3026 RMK A01 T01400070  RH  062%=      5-min Rain = 0
KMC1 260352Z 05004KT 14/07 A3026 RMK A01 T01400069  RH  063%=      5-min Rain = 0
KMC1 260353Z 06004KT 14/07 A3026 RMK A01 T01390070  RH  063%=      5-min Rain = 0
KMC1 260354Z 05003KT 14/07 A3026 RMK A01 T01390070  RH  063%=      5-min Rain = 0
KMC1 260355Z 06003KT 14/07 A3026 RMK A01 T01380070  RH  063%=      5-min Rain = 0
KMC1 260356Z 06003KT 14/07 A3026 RMK A01 T01370070  RH  064%=      5-min Rain = 0
KMC1 260357Z 06003KT 14/07 A3026 RMK A01 T01370070  RH  064%=      5-min Rain = 0
KMC1 260358Z 06003KT 14/07 A3026 RMK A01 T01360071  RH  065%=      5-min Rain = 0
KMC1 260359Z 06003KT 14/07 A3026 RMK A01 T01350071  RH  065%=      5-min Rain = 0
KMC1 260400Z 07003KT 14/07 A3026 RMK A01 T01350071  RH  065%=      5-min Rain = 0
KMC1 260401Z 07003KT 13/07 A3026 RMK A01 T01340071  RH  065%=      5-min Rain = 0
KMC1 260402Z 06003KT 13/07 A3026 RMK A01 T01340071  RH  065%=      5-min Rain = 0
KMC1 260403Z 06004KT 13/07 A3026 RMK A01 T01340071  RH  065%=      5-min Rain = 0
KMC1 260404Z 06004KT 13/07 A3026 RMK A01 T01340071  RH  066%=      5-min Rain = 0
KMC1 260405Z 06003KT 13/07 A3026 RMK A01 T01340070  RH  066%=      5-min Rain = 0
KMC1 260406Z 06003KT 13/07 A3026 RMK A01 T01340071  RH  066%=      5-min Rain = 0
KMC1 260407Z 06003KT 13/07 A3026 RMK A01 T01330070  RH  066%=      5-min Rain = 0
KMC1 260408Z 06003KT 13/07 A3026 RMK A01 T01330071  RH  066%=      5-min Rain = 0
KMC1 260409Z 06003KT 13/07 A3026 RMK A01 T01330071  RH  066%=      5-min Rain = 0
KMC1 260410Z 06003KT 13/07 A3026 RMK A01 T01320071  RH  066%=      5-min Rain = 0
KMC1 260411Z 06004KT 13/07 A3026 RMK A01 T01320071  RH  066%=      5-min Rain = 0
KMC1 260412Z 05004KT 13/07 A3026 RMK A01 T01320071  RH  066%=      5-min Rain = 0
KMC1 260413Z 05004KT 13/07 A3026 RMK A01 T01320071  RH  066%=      5-min Rain = 0
KMC1 260414Z 05004KT 13/07 A3026 RMK A01 T01320071  RH  067%=      5-min Rain = 0
KMC1 260415Z 05004KT 13/07 A3026 RMK A01 T01310071  RH  067%=      5-min Rain = 0
KMC1 260416Z 06004KT 13/07 A3026 RMK A01 T01310071  RH  067%=      5-min Rain = 0
KMC1 260417Z 06003KT 13/07 A3026 RMK A01 T01300071  RH  067%=      5-min Rain = 0
KMC1 260418Z 06003KT 13/07 A3026 RMK A01 T01300071  RH  067%=      5-min Rain = 0
KMC1 260419Z 06004KT 13/07 A3026 RMK A01 T01300071  RH  067%=      5-min Rain = 0
KMC1 260420Z 06004KT 13/07 A3026 RMK A01 T01300071  RH  068%=      5-min Rain = 0
KMC1 260421Z 06003KT 13/07 A3026 RMK A01 T01290071  RH  068%=      5-min Rain = 0
KMC1 260422Z 06003KT 13/07 A3026 RMK A01 T01290071  RH  068%=      5-min Rain = 0
KMC1 260423Z 05003KT 13/07 A3026 RMK A01 T01280071  RH  068%=      5-min Rain = 0
KMC1 260424Z 06004KT 13/07 A3026 RMK A01 T01280071  RH  068%=      5-min Rain = 0
KMC1 260425Z 06003KT 13/07 A3026 RMK A01 T01280071  RH  068%=      5-min Rain = 0
KMC1 260426Z 06004KT 13/07 A3026 RMK A01 T01280071  RH  069%=      5-min Rain = 0
KMC1 260427Z 06003KT 13/07 A3026 RMK A01 T01270071  RH  069%=      5-min Rain = 0
KMC1 260428Z 06004KT 13/07 A3026 RMK A01 T01270072  RH  069%=      5-min Rain = 0
KMC1 260429Z 07004KT 13/07 A3026 RMK A01 T01270072  RH  069%=      5-min Rain = 0
KMC1 260430Z 07004KT 13/07 A3026 RMK A01 T01270072  RH  069%=      5-min Rain = 0
KMC1 260431Z 07004KT 13/07 A3026 RMK A01 T01260072  RH  069%=      5-min Rain = 0
KMC1 260432Z 07004KT 13/07 A3026 RMK A01 T01260072  RH  070%=      5-min Rain = 0
KMC1 260433Z 07004KT 13/07 A3026 RMK A01 T01260072  RH  070%=      5-min Rain = 0
KMC1 260434Z 07004KT 13/07 A3026 RMK A01 T01260072  RH  070%=      5-min Rain = 0
KMC1 260435Z 07004KT 13/07 A3026 RMK A01 T01250072  RH  070%=      5-min Rain = 0
KMC1 260436Z 07004KT 13/07 A3026 RMK A01 T01260072  RH  070%=      5-min Rain = 0
KMC1 260437Z 07004KT 13/07 A3026 RMK A01 T01250072  RH  070%=      5-min Rain = 0
KMC1 260438Z 07004KT 13/07 A3026 RMK A01 T01250072  RH  070%=      5-min Rain = 0
KMC1 260439Z 07004KT 13/07 A3027 RMK A01 T01250072  RH  070%=      5-min Rain = 0
KMC1 260440Z 07004KT 13/07 A3027 RMK A01 T01250072  RH  070%=      5-min Rain = 0
KMC1 260441Z 06004KT 13/07 A3027 RMK A01 T01250072  RH  070%=      5-min Rain = 0
KMC1 260442Z 06004KT 13/07 A3026 RMK A01 T01250071  RH  070%=      5-min Rain = 0
KMC1 260443Z 06004KT 13/07 A3026 RMK A01 T01250072  RH  070%=      5-min Rain = 0
KMC1 260444Z 06004KT 13/07 A3026 RMK A01 T01250072  RH  070%=      5-min Rain = 0
KMC1 260445Z 06004KT 13/07 A3026 RMK A01 T01250072  RH  070%=      5-min Rain = 0
KMC1 260446Z 06004KT 13/07 A3026 RMK A01 T01250072  RH  070%=      5-min Rain = 0
KMC1 260447Z 06004KT 13/07 A3026 RMK A01 T01250072  RH  070%=      5-min Rain = 0
KMC1 260448Z 06004KT 12/07 A3026 RMK A01 T01240072  RH  070%=      5-min Rain = 0
KMC1 260449Z 07004KT 12/07 A3026 RMK A01 T01240072  RH  070%=      5-min Rain = 0
KMC1 260450Z 06004KT 12/07 A3026 RMK A01 T01240072  RH  070%=      5-min Rain = 0
KMC1 260451Z 07004KT 12/07 A3027 RMK A01 T01230071  RH  071%=      5-min Rain = 0
KMC1 260452Z 06004KT 12/07 A3027 RMK A01 T01230071  RH  071%=      5-min Rain = 0
KMC1 260453Z 06003KT 12/07 A3027 RMK A01 T01230072  RH  071%=      5-min Rain = 0
KMC1 260454Z 06004KT 12/07 A3027 RMK A01 T01230071  RH  071%=      5-min Rain = 0
KMC1 260455Z 07004KT 12/07 A3027 RMK A01 T01220071  RH  071%=      5-min Rain = 0
KMC1 260456Z 06004KT 12/07 A3027 RMK A01 T01220071  RH  071%=      5-min Rain = 0
KMC1 260457Z 07004KT 12/07 A3027 RMK A01 T01220071  RH  071%=      5-min Rain = 0
KMC1 260458Z 07004KT 12/07 A3027 RMK A01 T01220071  RH  071%=      5-min Rain = 0
KMC1 260459Z 07004KT 12/07 A3027 RMK A01 T01220071  RH  071%=      5-min Rain = 0

Page generated in 0.08 seconds.